Observation data for Van Horn on 02/22/2019      Previous  Date  Next       Current Mesonet Observations  Soil Data  Daily Summary Page  Observations in Plain Language
KVA1 220600Z 23003KT 11/M12 A2981 RMK A01 T01061119  RH  019%=      5-min Rain = 0
KVA1 220601Z 23003KT 10/M12 A2981 RMK A01 T01041119  RH  019%=      5-min Rain = 0
KVA1 220602Z 22004KT 10/M12 A2981 RMK A01 T01031120  RH  020%=      5-min Rain = 0
KVA1 220603Z 23004KT 10/M12 A2981 RMK A01 T01021119  RH  020%=      5-min Rain = 0
KVA1 220604Z 23003KT 10/M12 A2981 RMK A01 T01011119  RH  020%=      5-min Rain = 0
KVA1 220605Z 23004KT 10/M12 A2981 RMK A01 T00991120  RH  020%=      5-min Rain = 0
KVA1 220606Z 23004KT 10/M12 A2981 RMK A01 T00981120  RH  020%=      5-min Rain = 0
KVA1 220607Z 24003KT 10/M12 A2981 RMK A01 T00981120  RH  020%=      5-min Rain = 0
KVA1 220608Z 23003KT 10/M12 A2981 RMK A01 T00991120  RH  020%=      5-min Rain = 0
KVA1 220609Z 24004KT 10/M12 A2981 RMK A01 T00991121  RH  020%=      5-min Rain = 0
KVA1 220610Z 23004KT 10/M12 A2981 RMK A01 T01001121  RH  020%=      5-min Rain = 0
KVA1 220611Z 23004KT 10/M12 A2981 RMK A01 T01021121  RH  020%=      5-min Rain = 0
KVA1 220612Z 23004KT 10/M12 A2981 RMK A01 T01021121  RH  020%=      5-min Rain = 0
KVA1 220613Z 23004KT 10/M12 A2981 RMK A01 T01021121  RH  020%=      5-min Rain = 0
KVA1 220614Z 24004KT 10/M12 A2981 RMK A01 T01031122  RH  019%=      5-min Rain = 0
KVA1 220615Z 23004KT 10/M12 A2981 RMK A01 T01041123  RH  019%=      5-min Rain = 0
KVA1 220616Z 23004KT 11/M12 A2981 RMK A01 T01051123  RH  019%=      5-min Rain = 0
KVA1 220617Z 22004KT 10/M12 A2981 RMK A01 T01031124  RH  019%=      5-min Rain = 0
KVA1 220618Z 22004KT 10/M12 A2981 RMK A01 T01001124  RH  019%=      5-min Rain = 0
KVA1 220619Z 21003KT 10/M12 A2981 RMK A01 T00971123  RH  020%=      5-min Rain = 0
KVA1 220620Z 22004KT 09/M12 A2981 RMK A01 T00941123  RH  020%=      5-min Rain = 0
KVA1 220621Z 23004KT 09/M12 A2981 RMK A01 T00931123  RH  020%=      5-min Rain = 0
KVA1 220622Z 22004KT 09/M12 A2981 RMK A01 T00921124  RH  020%=      5-min Rain = 0
KVA1 220623Z 23004KT 09/M12 A2981 RMK A01 T00911123  RH  021%=      5-min Rain = 0
KVA1 220624Z 24005KT 09/M12 A2981 RMK A01 T00901122  RH  021%=      5-min Rain = 0
KVA1 220625Z 24005KT 09/M12 A2981 RMK A01 T00881123  RH  021%=      5-min Rain = 0
KVA1 220626Z 24005KT 09/M12 A2981 RMK A01 T00871123  RH  021%=      5-min Rain = 0
KVA1 220627Z 23005KT 09/M12 A2981 RMK A01 T00871123  RH  021%=      5-min Rain = 0
KVA1 220628Z 23006KT 09/M12 A2981 RMK A01 T00881123  RH  021%=      5-min Rain = 0
KVA1 220629Z 23006KT 09/M12 A2981 RMK A01 T00901123  RH  021%=      5-min Rain = 0
KVA1 220630Z 24006KT 09/M13 A2981 RMK A01 T00891125  RH  021%=      5-min Rain = 0
KVA1 220631Z 24006KT 08/M13 A2981 RMK A01 T00841127  RH  021%=      5-min Rain = 0
KVA1 220632Z 24006KT 08/M13 A2981 RMK A01 T00821127  RH  021%=      5-min Rain = 0
KVA1 220633Z 24006KT 08/M13 A2981 RMK A01 T00821126  RH  021%=      5-min Rain = 0
KVA1 220634Z 25006KT 08/M13 A2981 RMK A01 T00821126  RH  022%=      5-min Rain = 0
KVA1 220635Z 26007KT 08/M13 A2981 RMK A01 T00801126  RH  022%=      5-min Rain = 0
KVA1 220636Z 25008KT 08/M13 A2981 RMK A01 T00791126  RH  022%=      5-min Rain = 0
KVA1 220637Z 26007KT 08/M13 A2981 RMK A01 T00771126  RH  022%=      5-min Rain = 0
KVA1 220638Z 26007KT 08/M13 A2981 RMK A01 T00771125  RH  022%=      5-min Rain = 0
KVA1 220639Z 27006KT 08/M13 A2981 RMK A01 T00771125  RH  022%=      5-min Rain = 0
KVA1 220640Z 26006KT 08/M13 A2981 RMK A01 T00771126  RH  022%=      5-min Rain = 0
KVA1 220641Z 26006KT 08/M13 A2981 RMK A01 T00781126  RH  022%=      5-min Rain = 0
KVA1 220642Z 26006KT 08/M13 A2981 RMK A01 T00781125  RH  022%=      5-min Rain = 0
KVA1 220643Z 26007KT 08/M13 A2981 RMK A01 T00781126  RH  022%=      5-min Rain = 0
KVA1 220644Z 27007KT 08/M13 A2981 RMK A01 T00791126  RH  022%=      5-min Rain = 0
KVA1 220645Z 27006KT 08/M13 A2981 RMK A01 T00821126  RH  021%=      5-min Rain = 0
KVA1 220646Z 26006KT 08/M13 A2981 RMK A01 T00841126  RH  021%=      5-min Rain = 0
KVA1 220647Z 25005KT 09/M13 A2981 RMK A01 T00851126  RH  021%=      5-min Rain = 0
KVA1 220648Z 25004KT 09/M13 A2981 RMK A01 T00851126  RH  021%=      5-min Rain = 0
KVA1 220649Z 26004KT 09/M13 A2981 RMK A01 T00871126  RH  021%=      5-min Rain = 0
KVA1 220650Z 26003KT 09/M13 A2981 RMK A01 T00881126  RH  021%=      5-min Rain = 0
KVA1 220651Z 24003KT 09/M13 A2981 RMK A01 T00891125  RH  021%=      5-min Rain = 0
KVA1 220652Z 23003KT 09/M13 A2981 RMK A01 T00891125  RH  021%=      5-min Rain = 0
KVA1 220653Z 21003KT 09/M13 A2981 RMK A01 T00881126  RH  021%=      5-min Rain = 0
KVA1 220654Z 21003KT 09/M13 A2981 RMK A01 T00861126  RH  021%=      5-min Rain = 0
KVA1 220655Z 20003KT 09/M13 A2981 RMK A01 T00891126  RH  020%=      5-min Rain = 0
KVA1 220656Z 20004KT 09/M13 A2981 RMK A01 T00931126  RH  020%=      5-min Rain = 0
KVA1 220657Z 21004KT 10/M13 A2981 RMK A01 T00951127  RH  020%=      5-min Rain = 0
KVA1 220658Z 21004KT 10/M13 A2981 RMK A01 T00961128  RH  019%=      5-min Rain = 0
KVA1 220659Z 21005KT 10/M13 A2981 RMK A01 T00971128  RH  019%=      5-min Rain = 0
KVA1 220700Z 22005KT 10/M13 A2981 RMK A01 T00981128  RH  019%=      5-min Rain = 0
KVA1 220701Z 22006KT 10/M13 A2981 RMK A01 T00991128  RH  019%=      5-min Rain = 0
KVA1 220702Z 22005KT 10/M13 A2981 RMK A01 T00981128  RH  019%=      5-min Rain = 0
KVA1 220703Z 23006KT 10/M13 A2981 RMK A01 T00971129  RH  019%=      5-min Rain = 0
KVA1 220704Z 23006KT 10/M13 A2981 RMK A01 T00951129  RH  019%=      5-min Rain = 0
KVA1 220705Z 23006KT 09/M13 A2981 RMK A01 T00941130  RH  019%=      5-min Rain = 0
KVA1 220706Z 23006KT 09/M13 A2981 RMK A01 T00931130  RH  019%=      5-min Rain = 0
KVA1 220707Z 23007KT 09/M13 A2981 RMK A01 T00911130  RH  020%=      5-min Rain = 0
KVA1 220708Z 22007KT 09/M13 A2981 RMK A01 T00881130  RH  020%=      5-min Rain = 0
KVA1 220709Z 22008KT 09/M13 A2981 RMK A01 T00851131  RH  020%=      5-min Rain = 0
KVA1 220710Z 22008KT 08/M13 A2981 RMK A01 T00831130  RH  021%=      5-min Rain = 0
KVA1 220711Z 21007KT 08/M13 A2981 RMK A01 T00831129  RH  021%=      5-min Rain = 0
KVA1 220712Z 21007KT 08/M13 A2981 RMK A01 T00831128  RH  021%=      5-min Rain = 0
KVA1 220713Z 21007KT 08/M13 A2981 RMK A01 T00831126  RH  021%=      5-min Rain = 0
KVA1 220714Z 22006KT 08/M12 A2982 RMK A01 T00831124  RH  022%=      5-min Rain = 0
KVA1 220715Z 22004KT 08/M12 A2982 RMK A01 T00831123  RH  022%=      5-min Rain = 0
KVA1 220716Z 22004KT 08/M12 A2982 RMK A01 T00811124  RH  022%=      5-min Rain = 0
KVA1 220717Z 21006KT 08/M12 A2982 RMK A01 T00791124  RH  022%=      5-min Rain = 0
KVA1 220718Z 22004KT 08/M12 A2982 RMK A01 T00781122  RH  023%=      5-min Rain = 0
KVA1 220719Z 21003KT 08/M12 A2982 RMK A01 T00771121  RH  023%=      5-min Rain = 0
KVA1 220720Z 21005KT 08/M12 A2982 RMK A01 T00761121  RH  023%=      5-min Rain = 0
KVA1 220721Z 21005KT 08/M12 A2982 RMK A01 T00761118  RH  024%=      5-min Rain = 0
KVA1 220722Z 21005KT 08/M12 A2982 RMK A01 T00751117  RH  024%=      5-min Rain = 0
KVA1 220723Z 22005KT 07/M12 A2982 RMK A01 T00741117  RH  024%=      5-min Rain = 0
KVA1 220724Z 21006KT 07/M12 A2982 RMK A01 T00731116  RH  025%=      5-min Rain = 0
KVA1 220725Z 22005KT 07/M11 A2982 RMK A01 T00741114  RH  025%=      5-min Rain = 0
KVA1 220726Z 21005KT 08/M11 A2982 RMK A01 T00751114  RH  025%=      5-min Rain = 0
KVA1 220727Z 19004KT 08/M11 A2982 RMK A01 T00751114  RH  025%=      5-min Rain = 0
KVA1 220728Z 20005KT 07/M11 A2982 RMK A01 T00741113  RH  025%=      5-min Rain = 0
KVA1 220729Z 20005KT 07/M11 A2982 RMK A01 T00731113  RH  025%=      5-min Rain = 0
KVA1 220730Z 19007KT 07/M11 A2982 RMK A01 T00721113  RH  025%=      5-min Rain = 0
KVA1 220731Z 19007KT 07/M11 A2982 RMK A01 T00721114  RH  025%=      5-min Rain = 0
KVA1 220732Z 19007KT 07/M12 A2982 RMK A01 T00721115  RH  025%=      5-min Rain = 0
KVA1 220733Z 20008KT 07/M12 A2982 RMK A01 T00721115  RH  025%=      5-min Rain = 0
KVA1 220734Z 20007KT 07/M12 A2982 RMK A01 T00711116  RH  025%=      5-min Rain = 0
KVA1 220735Z 20007KT 07/M12 A2982 RMK A01 T00711117  RH  025%=      5-min Rain = 0
KVA1 220736Z 20007KT 07/M12 A2982 RMK A01 T00701118  RH  025%=      5-min Rain = 0
KVA1 220737Z 20007KT 07/M12 A2982 RMK A01 T00701118  RH  025%=      5-min Rain = 0
KVA1 220738Z 20006KT 07/M12 A2982 RMK A01 T00681119  RH  025%=      5-min Rain = 0
KVA1 220739Z 21007KT 07/M12 A2982 RMK A01 T00681120  RH  025%=      5-min Rain = 0
KVA1 220740Z 21007KT 07/M12 A2982 RMK A01 T00681120  RH  025%=      5-min Rain = 0
KVA1 220741Z 21007KT 07/M12 A2982 RMK A01 T00681120  RH  025%=      5-min Rain = 0
KVA1 220742Z 21008KT 07/M12 A2982 RMK A01 T00681120  RH  025%=      5-min Rain = 0
KVA1 220743Z 21007KT 07/M12 A2982 RMK A01 T00681121  RH  025%=      5-min Rain = 0
KVA1 220744Z 21007KT 07/M12 A2982 RMK A01 T00671121  RH  025%=      5-min Rain = 0
KVA1 220745Z 21006KT 07/M12 A2982 RMK A01 T00671122  RH  025%=      5-min Rain = 0
KVA1 220746Z 21007KT 07/M12 A2983 RMK A01 T00671122  RH  025%=      5-min Rain = 0
KVA1 220747Z 21007KT 07/M12 A2983 RMK A01 T00661122  RH  025%=      5-min Rain = 0
KVA1 220748Z 22008KT 07/M12 A2983 RMK A01 T00661122  RH  025%=      5-min Rain = 0
KVA1 220749Z 21007KT 07/M12 A2983 RMK A01 T00661122  RH  025%=      5-min Rain = 0
KVA1 220750Z 21006KT 07/M12 A2983 RMK A01 T00671122  RH  025%=      5-min Rain = 0
KVA1 220751Z 22007KT 07/M12 A2983 RMK A01 T00661123  RH  024%=      5-min Rain = 0
KVA1 220752Z 21007KT 07/M12 A2983 RMK A01 T00661123  RH  025%=      5-min Rain = 0
KVA1 220753Z 21007KT 07/M12 A2983 RMK A01 T00651123  RH  025%=      5-min Rain = 0
KVA1 220754Z 21008KT 07/M12 A2983 RMK A01 T00651123  RH  025%=      5-min Rain = 0
KVA1 220755Z 21008KT 07/M12 A2983 RMK A01 T00661123  RH  025%=      5-min Rain = 0
KVA1 220756Z 21007KT 07/M12 A2983 RMK A01 T00671123  RH  024%=      5-min Rain = 0
KVA1 220757Z 21007KT 07/M12 A2983 RMK A01 T00671123  RH  024%=      5-min Rain = 0
KVA1 220758Z 21007KT 07/M12 A2983 RMK A01 T00681123  RH  024%=      5-min Rain = 0
KVA1 220759Z 21007KT 07/M12 A2983 RMK A01 T00671123  RH  024%=      5-min Rain = 0
KVA1 220800Z 20006KT 07/M12 A2983 RMK A01 T00661124  RH  024%=      5-min Rain = 0
KVA1 220801Z 21006KT 07/M12 A2983 RMK A01 T00651124  RH  024%=      5-min Rain = 0
KVA1 220802Z 21006KT 07/M13 A2983 RMK A01 T00651125  RH  024%=      5-min Rain = 0
KVA1 220803Z 21006KT 07/M13 A2983 RMK A01 T00651125  RH  024%=      5-min Rain = 0
KVA1 220804Z 21006KT 07/M13 A2983 RMK A01 T00651125  RH  024%=      5-min Rain = 0
KVA1 220805Z 22006KT 07/M13 A2983 RMK A01 T00651125  RH  024%=      5-min Rain = 0
KVA1 220806Z 22006KT 07/M13 A2983 RMK A01 T00651125  RH  024%=      5-min Rain = 0
KVA1 220807Z 22006KT 07/M13 A2983 RMK A01 T00651126  RH  024%=      5-min Rain = 0
KVA1 220808Z 21007KT 07/M13 A2983 RMK A01 T00651126  RH  024%=      5-min Rain = 0
KVA1 220809Z 22007KT 07/M13 A2983 RMK A01 T00651126  RH  024%=      5-min Rain = 0
KVA1 220810Z 21007KT 07/M13 A2983 RMK A01 T00651126  RH  024%=      5-min Rain = 0
KVA1 220811Z 22007KT 06/M13 A2983 RMK A01 T00641126  RH  024%=      5-min Rain = 0
KVA1 220812Z 22006KT 06/M13 A2983 RMK A01 T00641127  RH  024%=      5-min Rain = 0
KVA1 220813Z 22006KT 06/M13 A2983 RMK A01 T00631127  RH  024%=      5-min Rain = 0
KVA1 220814Z 22006KT 06/M13 A2983 RMK A01 T00621127  RH  024%=      5-min Rain = 0
KVA1 220815Z 22005KT 06/M13 A2983 RMK A01 T00601128  RH  025%=      5-min Rain = 0
KVA1 220816Z 21005KT 06/M13 A2983 RMK A01 T00591128  RH  025%=      5-min Rain = 0
KVA1 220817Z 21006KT 06/M13 A2983 RMK A01 T00591127  RH  025%=      5-min Rain = 0
KVA1 220818Z 21006KT 06/M13 A2983 RMK A01 T00581127  RH  025%=      5-min Rain = 0
KVA1 220819Z 21006KT 06/M13 A2983 RMK A01 T00591126  RH  025%=      5-min Rain = 0
KVA1 220820Z 21006KT 06/M13 A2983 RMK A01 T00591126  RH  025%=      5-min Rain = 0
KVA1 220821Z 21007KT 06/M13 A2983 RMK A01 T00591125  RH  025%=      5-min Rain = 0
KVA1 220822Z 21007KT 06/M13 A2983 RMK A01 T00591125  RH  025%=      5-min Rain = 0
KVA1 220823Z 21007KT 06/M13 A2983 RMK A01 T00591125  RH  025%=      5-min Rain = 0
KVA1 220824Z 21007KT 06/M12 A2983 RMK A01 T00601124  RH  025%=      5-min Rain = 0
KVA1 220825Z 21007KT 06/M13 A2983 RMK A01 T00591125  RH  025%=      5-min Rain = 0
KVA1 220826Z 21007KT 06/M12 A2983 RMK A01 T00591124  RH  025%=      5-min Rain = 0
KVA1 220827Z 21007KT 06/M12 A2983 RMK A01 T00591123  RH  026%=      5-min Rain = 0
KVA1 220828Z 22007KT 06/M12 A2983 RMK A01 T00601123  RH  026%=      5-min Rain = 0
KVA1 220829Z 22008KT 06/M12 A2984 RMK A01 T00611122  RH  026%=      5-min Rain = 0
KVA1 220830Z 22007KT 06/M12 A2984 RMK A01 T00601122  RH  026%=      5-min Rain = 0
KVA1 220831Z 22008KT 06/M12 A2984 RMK A01 T00591121  RH  026%=      5-min Rain = 0
KVA1 220832Z 22008KT 06/M12 A2984 RMK A01 T00581120  RH  026%=      5-min Rain = 0
KVA1 220833Z 22008KT 06/M12 A2984 RMK A01 T00581119  RH  027%=      5-min Rain = 0
KVA1 220834Z 21008KT 06/M12 A2984 RMK A01 T00581118  RH  027%=      5-min Rain = 0
KVA1 220835Z 22008KT 06/M12 A2984 RMK A01 T00581117  RH  027%=      5-min Rain = 0
KVA1 220836Z 22007KT 06/M12 A2984 RMK A01 T00581117  RH  027%=      5-min Rain = 0
KVA1 220837Z 22007KT 06/M12 A2984 RMK A01 T00581116  RH  027%=      5-min Rain = 0
KVA1 220838Z 22007KT 06/M12 A2984 RMK A01 T00591116  RH  027%=      5-min Rain = 0
KVA1 220839Z 21008KT 06/M12 A2984 RMK A01 T00591115  RH  027%=      5-min Rain = 0
KVA1 220840Z 21009KT 06/M11 A2984 RMK A01 T00601114  RH  027%=      5-min Rain = 0
KVA1 220841Z 21008KT 06/M11 A2984 RMK A01 T00601111  RH  028%=      5-min Rain = 0
KVA1 220842Z 21007KT 06/M11 A2984 RMK A01 T00621107  RH  029%=      5-min Rain = 0
KVA1 220843Z 21008KT 06/M11 A2984 RMK A01 T00621106  RH  029%=      5-min Rain = 0
KVA1 220844Z 21008KT 06/M11 A2984 RMK A01 T00611105  RH  029%=      5-min Rain = 0
KVA1 220845Z 21009KT 06/M10 A2984 RMK A01 T00611104  RH  029%=      5-min Rain = 0
KVA1 220846Z 22008KT 06/M10 A2984 RMK A01 T00611102  RH  030%=      5-min Rain = 0
KVA1 220847Z 22008KT 06/M10 A2984 RMK A01 T00611101  RH  030%=      5-min Rain = 0
KVA1 220848Z 22008KT 06/M10 A2984 RMK A01 T00611100  RH  030%=      5-min Rain = 0
KVA1 220849Z 22007KT 06/M10 A2984 RMK A01 T00611099  RH  031%=      5-min Rain = 0
KVA1 220850Z 22008KT 06/M10 A2984 RMK A01 T00601099  RH  031%=      5-min Rain = 0
KVA1 220851Z 22008KT 06/M10 A2984 RMK A01 T00591098  RH  031%=      5-min Rain = 0
KVA1 220852Z 22007KT 06/M10 A2984 RMK A01 T00581097  RH  032%=      5-min Rain = 0
KVA1 220853Z 22008KT 06/M10 A2984 RMK A01 T00571097  RH  032%=      5-min Rain = 0
KVA1 220854Z 22007KT 06/M10 A2984 RMK A01 T00561096  RH  032%=      5-min Rain = 0
KVA1 220855Z 22007KT 06/M10 A2984 RMK A01 T00551096  RH  033%=      5-min Rain = 0
KVA1 220856Z 22008KT 05/M10 A2984 RMK A01 T00541096  RH  033%=      5-min Rain = 0
KVA1 220857Z 22008KT 05/M10 A2984 RMK A01 T00531095  RH  033%=      5-min Rain = 0
KVA1 220858Z 22009KT 05/M09 A2984 RMK A01 T00531094  RH  034%=      5-min Rain = 0
KVA1 220859Z 22008KT 05/M09 A2984 RMK A01 T00531093  RH  034%=      5-min Rain = 0
KVA1 220900Z 23008KT 05/M09 A2984 RMK A01 T00531093  RH  034%=      5-min Rain = 0
KVA1 220901Z 23008KT 05/M09 A2984 RMK A01 T00531092  RH  034%=      5-min Rain = 0
KVA1 220902Z 23008KT 05/M09 A2984 RMK A01 T00521091  RH  035%=      5-min Rain = 0
KVA1 220903Z 23007KT 05/M09 A2984 RMK A01 T00521090  RH  035%=      5-min Rain = 0
KVA1 220904Z 24006KT 05/M09 A2984 RMK A01 T00511090  RH  035%=      5-min Rain = 0
KVA1 220905Z 23006KT 05/M09 A2984 RMK A01 T00501090  RH  036%=      5-min Rain = 0
KVA1 220906Z 23006KT 05/M09 A2984 RMK A01 T00491090  RH  036%=      5-min Rain = 0
KVA1 220907Z 23006KT 05/M09 A2984 RMK A01 T00491090  RH  036%=      5-min Rain = 0
KVA1 220908Z 23006KT 05/M09 A2984 RMK A01 T00481090  RH  036%=      5-min Rain = 0
KVA1 220909Z 24005KT 05/M09 A2984 RMK A01 T00471090  RH  036%=      5-min Rain = 0
KVA1 220910Z 24005KT 05/M09 A2984 RMK A01 T00471090  RH  036%=      5-min Rain = 0
KVA1 220911Z 24005KT 05/M09 A2984 RMK A01 T00461091  RH  036%=      5-min Rain = 0
KVA1 220912Z 23005KT 05/M09 A2984 RMK A01 T00451092  RH  036%=      5-min Rain = 0
KVA1 220913Z 23005KT 04/M09 A2984 RMK A01 T00441094  RH  036%=      5-min Rain = 0
KVA1 220914Z 23005KT 04/M09 A2984 RMK A01 T00431094  RH  036%=      5-min Rain = 0
KVA1 220915Z 23005KT 04/M10 A2984 RMK A01 T00431095  RH  036%=      5-min Rain = 0
KVA1 220916Z 23006KT 04/M10 A2984 RMK A01 T00421096  RH  036%=      5-min Rain = 0
KVA1 220917Z 24006KT 04/M10 A2984 RMK A01 T00411097  RH  036%=      5-min Rain = 0
KVA1 220918Z 24006KT 04/M10 A2984 RMK A01 T00401098  RH  036%=      5-min Rain = 0
KVA1 220919Z 24006KT 04/M10 A2984 RMK A01 T00391099  RH  036%=      5-min Rain = 0
KVA1 220920Z 24006KT 04/M10 A2984 RMK A01 T00381100  RH  036%=      5-min Rain = 0
KVA1 220921Z 23006KT 04/M10 A2984 RMK A01 T00381101  RH  036%=      5-min Rain = 0
KVA1 220922Z 24006KT 04/M10 A2984 RMK A01 T00381101  RH  036%=      5-min Rain = 0
KVA1 220923Z 24006KT 04/M10 A2984 RMK A01 T00371102  RH  035%=      5-min Rain = 0
KVA1 220924Z 23006KT 04/M10 A2984 RMK A01 T00371104  RH  035%=      5-min Rain = 0
KVA1 220925Z 24005KT 04/M11 A2984 RMK A01 T00371105  RH  035%=      5-min Rain = 0
KVA1 220926Z 24006KT 04/M11 A2984 RMK A01 T00371106  RH  034%=      5-min Rain = 0
KVA1 220927Z 24005KT 04/M11 A2984 RMK A01 T00371107  RH  034%=      5-min Rain = 0
KVA1 220928Z 24005KT 04/M11 A2984 RMK A01 T00371108  RH  034%=      5-min Rain = 0
KVA1 220929Z 24005KT 04/M11 A2984 RMK A01 T00361110  RH  033%=      5-min Rain = 0
KVA1 220930Z 24004KT 04/M11 A2984 RMK A01 T00361110  RH  033%=      5-min Rain = 0
KVA1 220931Z 24004KT 04/M11 A2984 RMK A01 T00361112  RH  033%=      5-min Rain = 0
KVA1 220932Z 24004KT 04/M11 A2984 RMK A01 T00351113  RH  033%=      5-min Rain = 0
KVA1 220933Z 23003KT 04/M11 A2984 RMK A01 T00351113  RH  033%=      5-min Rain = 0
KVA1 220934Z 20002KT 04/M11 A2984 RMK A01 T00351113  RH  033%=      5-min Rain = 0
KVA1 220935Z 15003KT 03/M11 A2985 RMK A01 T00341112  RH  034%=      5-min Rain = 0
KVA1 220936Z 13005KT 03/M11 A2985 RMK A01 T00321108  RH  035%=      5-min Rain = 0
KVA1 220937Z 18003KT 03/M10 A2985 RMK A01 T00301100  RH  038%=      5-min Rain = 0
KVA1 220938Z 18004KT 03/M10 A2985 RMK A01 T00301097  RH  039%=      5-min Rain = 0
KVA1 220939Z 16003KT 03/M10 A2985 RMK A01 T00301097  RH  039%=      5-min Rain = 0
KVA1 220940Z 16003KT 03/M10 A2985 RMK A01 T00301096  RH  039%=      5-min Rain = 0
KVA1 220941Z 18003KT 03/M09 A2985 RMK A01 T00301093  RH  040%=      5-min Rain = 0
KVA1 220942Z 20004KT 03/M09 A2984 RMK A01 T00311090  RH  041%=      5-min Rain = 0
KVA1 220943Z 19004KT 03/M09 A2985 RMK A01 T00331088  RH  041%=      5-min Rain = 0
KVA1 220944Z 16004KT 03/M09 A2985 RMK A01 T00341089  RH  040%=      5-min Rain = 0
KVA1 220945Z 17004KT 03/M09 A2985 RMK A01 T00331089  RH  040%=      5-min Rain = 0
KVA1 220946Z 17005KT 03/M09 A2985 RMK A01 T00321088  RH  041%=      5-min Rain = 0
KVA1 220947Z 18005KT 03/M09 A2985 RMK A01 T00311088  RH  041%=      5-min Rain = 0
KVA1 220948Z 21005KT 03/M09 A2985 RMK A01 T00311087  RH  041%=      5-min Rain = 0
KVA1 220949Z 22006KT 03/M09 A2985 RMK A01 T00331087  RH  041%=      5-min Rain = 0
KVA1 220950Z 22006KT 04/M09 A2985 RMK A01 T00351089  RH  040%=      5-min Rain = 0
KVA1 220951Z 22006KT 04/M09 A2985 RMK A01 T00371091  RH  039%=      5-min Rain = 0
KVA1 220952Z 21006KT 04/M09 A2985 RMK A01 T00371092  RH  038%=      5-min Rain = 0
KVA1 220953Z 21006KT 04/M09 A2985 RMK A01 T00371093  RH  038%=      5-min Rain = 0
KVA1 220954Z 21006KT 04/M09 A2985 RMK A01 T00361093  RH  038%=      5-min Rain = 0
KVA1 220955Z 21006KT 04/M09 A2985 RMK A01 T00361088  RH  040%=      5-min Rain = 0
KVA1 220956Z 21005KT 04/M09 A2985 RMK A01 T00351088  RH  040%=      5-min Rain = 0
KVA1 220957Z 20003KT 04/M09 A2985 RMK A01 T00351088  RH  040%=      5-min Rain = 0
KVA1 220958Z 21004KT 03/M09 A2985 RMK A01 T00331089  RH  040%=      5-min Rain = 0
KVA1 220959Z 20003KT 03/M09 A2985 RMK A01 T00321092  RH  040%=      5-min Rain = 0
KVA1 221000Z 21005KT 03/M09 A2985 RMK A01 T00321094  RH  039%=      5-min Rain = 0
KVA1 221001Z 21005KT 03/M10 A2985 RMK A01 T00321095  RH  039%=      5-min Rain = 0
KVA1 221002Z 21005KT 03/M10 A2985 RMK A01 T00311098  RH  038%=      5-min Rain = 0
KVA1 221003Z 20005KT 03/M10 A2985 RMK A01 T00311099  RH  038%=      5-min Rain = 0
KVA1 221004Z 20004KT 03/M10 A2985 RMK A01 T00301101  RH  037%=      5-min Rain = 0
KVA1 221005Z 22005KT 03/M10 A2985 RMK A01 T00311102  RH  037%=      5-min Rain = 0
KVA1 221006Z 22004KT 03/M10 A2985 RMK A01 T00311104  RH  037%=      5-min Rain = 0
KVA1 221007Z 22004KT 03/M10 A2985 RMK A01 T00301104  RH  036%=      5-min Rain = 0
KVA1 221008Z 23003KT 03/M11 A2985 RMK A01 T00301105  RH  036%=      5-min Rain = 0
KVA1 221009Z 23004KT 03/M11 A2985 RMK A01 T00291105  RH  037%=      5-min Rain = 0
KVA1 221010Z 22003KT 03/M11 A2985 RMK A01 T00281106  RH  037%=      5-min Rain = 0
KVA1 221011Z 21003KT 03/M11 A2985 RMK A01 T00281106  RH  037%=      5-min Rain = 0
KVA1 221012Z 22003KT 03/M11 A2985 RMK A01 T00271107  RH  037%=      5-min Rain = 0
KVA1 221013Z 21003KT 03/M11 A2985 RMK A01 T00271107  RH  037%=      5-min Rain = 0
KVA1 221014Z 23003KT 03/M11 A2985 RMK A01 T00261108  RH  036%=      5-min Rain = 0
KVA1 221015Z 24004KT 03/M11 A2985 RMK A01 T00271108  RH  036%=      5-min Rain = 0
KVA1 221016Z 23004KT 03/M11 A2985 RMK A01 T00261109  RH  036%=      5-min Rain = 0
KVA1 221017Z 23004KT 02/M11 A2985 RMK A01 T00241110  RH  037%=      5-min Rain = 0
KVA1 221018Z 23004KT 02/M11 A2985 RMK A01 T00221111  RH  037%=      5-min Rain = 0
KVA1 221019Z 24004KT 02/M11 A2985 RMK A01 T00211111  RH  037%=      5-min Rain = 0
KVA1 221020Z 24004KT 02/M11 A2985 RMK A01 T00191111  RH  037%=      5-min Rain = 0
KVA1 221021Z 24004KT 02/M11 A2985 RMK A01 T00181111  RH  038%=      5-min Rain = 0
KVA1 221022Z 24004KT 02/M11 A2985 RMK A01 T00171112  RH  038%=      5-min Rain = 0
KVA1 221023Z 25004KT 02/M11 A2985 RMK A01 T00151112  RH  038%=      5-min Rain = 0
KVA1 221024Z 25004KT 01/M11 A2985 RMK A01 T00141113  RH  038%=      5-min Rain = 0
KVA1 221025Z 25004KT 01/M11 A2985 RMK A01 T00141112  RH  038%=      5-min Rain = 0
KVA1 221026Z 26004KT 01/M11 A2985 RMK A01 T00141112  RH  039%=      5-min Rain = 0
KVA1 221027Z 26004KT 02/M11 A2985 RMK A01 T00151111  RH  039%=      5-min Rain = 0
KVA1 221028Z 26004KT 02/M11 A2985 RMK A01 T00151111  RH  039%=      5-min Rain = 0
KVA1 221029Z 26005KT 02/M11 A2985 RMK A01 T00151110  RH  039%=      5-min Rain = 0
KVA1 221030Z 27005KT 02/M11 A2985 RMK A01 T00151108  RH  039%=      5-min Rain = 0
KVA1 221031Z 28006KT 02/M11 A2985 RMK A01 T00151107  RH  040%=      5-min Rain = 0
KVA1 221032Z 28006KT 02/M11 A2985 RMK A01 T00151107  RH  040%=      5-min Rain = 0
KVA1 221033Z 27006KT 02/M11 A2985 RMK A01 T00151106  RH  040%=      5-min Rain = 0
KVA1 221034Z 27007KT 02/M11 A2985 RMK A01 T00151106  RH  040%=      5-min Rain = 0
KVA1 221035Z 27007KT 02/M11 A2985 RMK A01 T00161106  RH  040%=      5-min Rain = 0
KVA1 221036Z 27007KT 02/M11 A2985 RMK A01 T00161107  RH  040%=      5-min Rain = 0
KVA1 221037Z 27006KT 02/M11 A2985 RMK A01 T00161108  RH  039%=      5-min Rain = 0
KVA1 221038Z 27006KT 02/M11 A2985 RMK A01 T00161108  RH  039%=      5-min Rain = 0
KVA1 221039Z 27006KT 02/M11 A2986 RMK A01 T00171109  RH  039%=      5-min Rain = 0
KVA1 221040Z 27006KT 02/M11 A2985 RMK A01 T00171109  RH  039%=      5-min Rain = 0
KVA1 221041Z 27006KT 02/M11 A2985 RMK A01 T00161109  RH  039%=      5-min Rain = 0
KVA1 221042Z 27005KT 02/M11 A2986 RMK A01 T00161110  RH  039%=      5-min Rain = 0
KVA1 221043Z 27005KT 02/M11 A2986 RMK A01 T00151110  RH  039%=      5-min Rain = 0
KVA1 221044Z 27004KT 02/M11 A2986 RMK A01 T00151110  RH  039%=      5-min Rain = 0
KVA1 221045Z 27005KT 02/M11 A2986 RMK A01 T00151110  RH  039%=      5-min Rain = 0
KVA1 221046Z 27005KT 01/M11 A2986 RMK A01 T00141111  RH  039%=      5-min Rain = 0
KVA1 221047Z 27005KT 01/M11 A2986 RMK A01 T00131112  RH  039%=      5-min Rain = 0
KVA1 221048Z 27005KT 01/M11 A2986 RMK A01 T00121112  RH  039%=      5-min Rain = 0
KVA1 221049Z 27005KT 01/M11 A2986 RMK A01 T00121113  RH  039%=      5-min Rain = 0
KVA1 221050Z 26006KT 01/M11 A2986 RMK A01 T00121113  RH  039%=      5-min Rain = 0
KVA1 221051Z 27005KT 01/M11 A2985 RMK A01 T00121113  RH  039%=      5-min Rain = 0
KVA1 221052Z 26005KT 01/M11 A2985 RMK A01 T00121113  RH  039%=      5-min Rain = 0
KVA1 221053Z 26006KT 01/M11 A2986 RMK A01 T00121113  RH  039%=      5-min Rain = 0
KVA1 221054Z 25006KT 01/M11 A2986 RMK A01 T00111113  RH  039%=      5-min Rain = 0
KVA1 221055Z 24006KT 01/M11 A2986 RMK A01 T00111113  RH  039%=      5-min Rain = 0
KVA1 221056Z 25005KT 01/M11 A2986 RMK A01 T00111113  RH  039%=      5-min Rain = 0
KVA1 221057Z 24006KT 01/M11 A2986 RMK A01 T00111112  RH  039%=      5-min Rain = 0
KVA1 221058Z 24006KT 01/M11 A2986 RMK A01 T00111112  RH  040%=      5-min Rain = 0
KVA1 221059Z 23007KT 01/M11 A2986 RMK A01 T00111111  RH  040%=      5-min Rain = 0
KVA1 221100Z 22007KT 01/M11 A2986 RMK A01 T00111109  RH  040%=      5-min Rain = 0
KVA1 221101Z 22007KT 01/M11 A2986 RMK A01 T00121107  RH  041%=      5-min Rain = 0
KVA1 221102Z 21007KT 02/M10 A2986 RMK A01 T00151103  RH  041%=      5-min Rain = 0
KVA1 221103Z 21007KT 02/M10 A2986 RMK A01 T00181099  RH  042%=      5-min Rain = 0
KVA1 221104Z 21007KT 02/M10 A2986 RMK A01 T00201097  RH  042%=      5-min Rain = 0
KVA1 221105Z 22007KT 02/M09 A2986 RMK A01 T00221094  RH  042%=      5-min Rain = 0
KVA1 221106Z 22008KT 02/M09 A2986 RMK A01 T00241094  RH  042%=      5-min Rain = 0
KVA1 221107Z 21007KT 02/M09 A2986 RMK A01 T00241094  RH  041%=      5-min Rain = 0
KVA1 221108Z 22008KT 02/M09 A2986 RMK A01 T00241093  RH  042%=      5-min Rain = 0
KVA1 221109Z 22009KT 02/M09 A2986 RMK A01 T00231093  RH  042%=      5-min Rain = 0
KVA1 221110Z 21008KT 02/M09 A2986 RMK A01 T00221091  RH  043%=      5-min Rain = 0
KVA1 221111Z 21006KT 02/M08 A2986 RMK A01 T00231084  RH  045%=      5-min Rain = 0
KVA1 221112Z 21006KT 03/M08 A2986 RMK A01 T00251080  RH  046%=      5-min Rain = 0
KVA1 221113Z 22007KT 03/M08 A2986 RMK A01 T00261078  RH  046%=      5-min Rain = 0
KVA1 221114Z 22007KT 03/M08 A2986 RMK A01 T00271078  RH  046%=      5-min Rain = 0
KVA1 221115Z 22007KT 03/M08 A2986 RMK A01 T00271077  RH  046%=      5-min Rain = 0
KVA1 221116Z 23006KT 03/M08 A2986 RMK A01 T00281076  RH  046%=      5-min Rain = 0
KVA1 221117Z 23007KT 03/M08 A2986 RMK A01 T00271077  RH  046%=      5-min Rain = 0
KVA1 221118Z 23008KT 03/M08 A2986 RMK A01 T00261078  RH  046%=      5-min Rain = 0
KVA1 221119Z 23007KT 03/M08 A2986 RMK A01 T00251079  RH  046%=      5-min Rain = 0
KVA1 221120Z 23007KT 02/M08 A2986 RMK A01 T00241078  RH  047%=      5-min Rain = 0
KVA1 221121Z 23008KT 02/M08 A2986 RMK A01 T00241077  RH  047%=      5-min Rain = 0
KVA1 221122Z 23007KT 02/M08 A2986 RMK A01 T00231076  RH  048%=      5-min Rain = 0
KVA1 221123Z 23007KT 02/M08 A2986 RMK A01 T00231075  RH  048%=      5-min Rain = 0
KVA1 221124Z 23007KT 02/M08 A2986 RMK A01 T00231075  RH  049%=      5-min Rain = 0
KVA1 221125Z 24007KT 02/M08 A2986 RMK A01 T00221075  RH  049%=      5-min Rain = 0
KVA1 221126Z 24006KT 02/M07 A2986 RMK A01 T00221074  RH  049%=      5-min Rain = 0
KVA1 221127Z 25006KT 02/M07 A2986 RMK A01 T00211074  RH  049%=      5-min Rain = 0
KVA1 221128Z 25006KT 02/M07 A2986 RMK A01 T00221074  RH  049%=      5-min Rain = 0
KVA1 221129Z 25006KT 02/M07 A2986 RMK A01 T00211074  RH  049%=      5-min Rain = 0
KVA1 221130Z 25008KT 02/M07 A2986 RMK A01 T00201074  RH  049%=      5-min Rain = 0
KVA1 221131Z 24008KT 02/M08 A2986 RMK A01 T00201075  RH  049%=      5-min Rain = 0
KVA1 221132Z 24007KT 02/M08 A2986 RMK A01 T00201075  RH  049%=      5-min Rain = 0
KVA1 221133Z 24007KT 02/M08 A2986 RMK A01 T00191075  RH  049%=      5-min Rain = 0
KVA1 221134Z 24007KT 02/M08 A2986 RMK A01 T00191075  RH  050%=      5-min Rain = 0
KVA1 221135Z 24007KT 02/M07 A2986 RMK A01 T00201074  RH  050%=      5-min Rain = 0
KVA1 221136Z 24006KT 02/M07 A2986 RMK A01 T00211073  RH  050%=      5-min Rain = 0
KVA1 221137Z 24008KT 02/M07 A2986 RMK A01 T00221072  RH  050%=      5-min Rain = 0
KVA1 221138Z 23008KT 02/M07 A2986 RMK A01 T00231071  RH  050%=      5-min Rain = 0
KVA1 221139Z 22007KT 02/M07 A2986 RMK A01 T00241071  RH  050%=      5-min Rain = 0
KVA1 221140Z 23006KT 03/M07 A2986 RMK A01 T00261069  RH  049%=      5-min Rain = 0
KVA1 221141Z 23006KT 03/M07 A2986 RMK A01 T00261070  RH  049%=      5-min Rain = 0
KVA1 221142Z 22006KT 03/M07 A2987 RMK A01 T00261072  RH  049%=      5-min Rain = 0
KVA1 221143Z 21004KT 03/M07 A2987 RMK A01 T00261072  RH  048%=      5-min Rain = 0
KVA1 221144Z 21003KT 03/M07 A2987 RMK A01 T00251073  RH  048%=      5-min Rain = 0
KVA1 221145Z 20005KT 03/M07 A2987 RMK A01 T00251074  RH  048%=      5-min Rain = 0
KVA1 221146Z 19005KT 02/M07 A2987 RMK A01 T00231074  RH  048%=      5-min Rain = 0
KVA1 221147Z 20004KT 02/M08 A2987 RMK A01 T00221075  RH  049%=      5-min Rain = 0
KVA1 221148Z 19004KT 02/M08 A2987 RMK A01 T00211075  RH  049%=      5-min Rain = 0
KVA1 221149Z 19004KT 02/M08 A2987 RMK A01 T00201075  RH  049%=      5-min Rain = 0
KVA1 221150Z 19004KT 02/M08 A2987 RMK A01 T00191076  RH  049%=      5-min Rain = 0
KVA1 221151Z 18004KT 02/M08 A2987 RMK A01 T00191076  RH  050%=      5-min Rain = 0
KVA1 221152Z 18005KT 02/M08 A2987 RMK A01 T00191075  RH  050%=      5-min Rain = 0
KVA1 221153Z 19005KT 02/M08 A2987 RMK A01 T00171077  RH  050%=      5-min Rain = 0
KVA1 221154Z 19004KT 02/M08 A2987 RMK A01 T00171077  RH  050%=      5-min Rain = 0
KVA1 221155Z 19004KT 02/M08 A2987 RMK A01 T00181078  RH  049%=      5-min Rain = 0
KVA1 221156Z 20005KT 02/M08 A2987 RMK A01 T00191079  RH  048%=      5-min Rain = 0
KVA1 221157Z 20004KT 02/M08 A2987 RMK A01 T00191081  RH  047%=      5-min Rain = 0
KVA1 221158Z 18005KT 02/M08 A2987 RMK A01 T00211081  RH  047%=      5-min Rain = 0
KVA1 221159Z 18006KT 02/M08 A2987 RMK A01 T00201082  RH  047%=      5-min Rain = 0
KVA1 221200Z 18006KT 02/M08 A2987 RMK A01 T00171084  RH  047%=      5-min Rain = 0
KVA1 221201Z 17004KT 02/M09 A2987 RMK A01 T00151085  RH  047%=      5-min Rain = 0
KVA1 221202Z 18004KT 01/M09 A2987 RMK A01 T00131085  RH  048%=      5-min Rain = 0
KVA1 221203Z 17003KT 01/M09 A2987 RMK A01 T00111085  RH  048%=      5-min Rain = 0
KVA1 221204Z 18004KT 01/M09 A2987 RMK A01 T00101086  RH  049%=      5-min Rain = 0
KVA1 221205Z 18004KT 01/M09 A2987 RMK A01 T00101086  RH  049%=      5-min Rain = 0
KVA1 221206Z 17005KT 01/M09 A2987 RMK A01 T00091087  RH  049%=      5-min Rain = 0
KVA1 221207Z 18005KT 01/M09 A2987 RMK A01 T00081086  RH  049%=      5-min Rain = 0
KVA1 221208Z 19005KT 01/M09 A2988 RMK A01 T00081085  RH  050%=      5-min Rain = 0
KVA1 221209Z 19005KT 01/M09 A2988 RMK A01 T00081085  RH  050%=      5-min Rain = 0
KVA1 221210Z 19005KT 01/M09 A2988 RMK A01 T00081086  RH  049%=      5-min Rain = 0
KVA1 221211Z 19005KT 01/M09 A2988 RMK A01 T00091087  RH  049%=      5-min Rain = 0
KVA1 221212Z 19005KT 01/M09 A2988 RMK A01 T00091088  RH  048%=      5-min Rain = 0
KVA1 221213Z 19005KT 01/M09 A2988 RMK A01 T00091089  RH  048%=      5-min Rain = 0
KVA1 221214Z 19004KT 01/M09 A2988 RMK A01 T00091089  RH  048%=      5-min Rain = 0
KVA1 221215Z 19004KT 01/M09 A2988 RMK A01 T00081090  RH  048%=      5-min Rain = 0
KVA1 221216Z 19004KT 01/M09 A2988 RMK A01 T00081091  RH  048%=      5-min Rain = 0
KVA1 221217Z 20004KT 01/M09 A2988 RMK A01 T00071092  RH  048%=      5-min Rain = 0
KVA1 221218Z 21003KT 01/M09 A2988 RMK A01 T00051094  RH  048%=      5-min Rain = 0
KVA1 221219Z 22003KT 00/M10 A2988 RMK A01 T00021096  RH  048%=      5-min Rain = 0
KVA1 221220Z 23004KT M00/M10 A2988 RMK A01 T10021098  RH  048%=      5-min Rain = 0
KVA1 221221Z 23004KT M01/M10 A2988 RMK A01 T10051100  RH  049%=      5-min Rain = 0
KVA1 221222Z 23004KT M01/M10 A2988 RMK A01 T10071099  RH  050%=      5-min Rain = 0
KVA1 221223Z 24005KT M01/M10 A2988 RMK A01 T10081100  RH  050%=      5-min Rain = 0
KVA1 221224Z 24005KT M01/M10 A2988 RMK A01 T10091100  RH  050%=      5-min Rain = 0
KVA1 221225Z 24006KT M01/M10 A2988 RMK A01 T10091101  RH  050%=      5-min Rain = 0
KVA1 221226Z 24006KT M01/M10 A2988 RMK A01 T10091101  RH  050%=      5-min Rain = 0
KVA1 221227Z 24006KT M01/M10 A2988 RMK A01 T10091102  RH  049%=      5-min Rain = 0
KVA1 221228Z 24006KT M01/M10 A2988 RMK A01 T10081103  RH  049%=      5-min Rain = 0
KVA1 221229Z 24006KT M01/M11 A2988 RMK A01 T10081105  RH  048%=      5-min Rain = 0
KVA1 221230Z 24006KT M01/M11 A2988 RMK A01 T10071105  RH  047%=      5-min Rain = 0
KVA1 221231Z 23006KT M01/M11 A2988 RMK A01 T10061106  RH  047%=      5-min Rain = 0
KVA1 221232Z 23004KT M01/M11 A2988 RMK A01 T10051106  RH  046%=      5-min Rain = 0
KVA1 221233Z 17003KT M01/M11 A2988 RMK A01 T10051107  RH  046%=      5-min Rain = 0
KVA1 221234Z 24005KT M01/M11 A2988 RMK A01 T10051106  RH  046%=      5-min Rain = 0
KVA1 221235Z 22004KT M01/M11 A2988 RMK A01 T10051107  RH  046%=      5-min Rain = 0
KVA1 221236Z 22004KT M00/M11 A2988 RMK A01 T10041107  RH  046%=      5-min Rain = 0
KVA1 221237Z 22005KT M00/M11 A2988 RMK A01 T10041107  RH  046%=      5-min Rain = 0
KVA1 221238Z 22004KT M01/M11 A2988 RMK A01 T10051108  RH  046%=      5-min Rain = 0
KVA1 221239Z 21003KT M01/M11 A2988 RMK A01 T10061108  RH  046%=      5-min Rain = 0
KVA1 221240Z 16003KT M01/M11 A2988 RMK A01 T10071109  RH  046%=      5-min Rain = 0
KVA1 221241Z 17003KT M01/M11 A2988 RMK A01 T10091109  RH  046%=      5-min Rain = 0
KVA1 221242Z 15003KT M01/M11 A2988 RMK A01 T10101110  RH  047%=      5-min Rain = 0
KVA1 221243Z 16003KT M01/M11 A2988 RMK A01 T10101110  RH  047%=      5-min Rain = 0
KVA1 221244Z 15003KT M01/M11 A2989 RMK A01 T10111110  RH  047%=      5-min Rain = 0
KVA1 221245Z 18002KT M01/M11 A2989 RMK A01 T10111109  RH  047%=      5-min Rain = 0
KVA1 221246Z 18002KT M01/M11 A2988 RMK A01 T10121108  RH  048%=      5-min Rain = 0
KVA1 221247Z 18002KT M01/M11 A2988 RMK A01 T10121107  RH  048%=      5-min Rain = 0
KVA1 221248Z 18003KT M01/M11 A2988 RMK A01 T10121107  RH  049%=      5-min Rain = 0
KVA1 221249Z 18003KT M01/M11 A2988 RMK A01 T10121106  RH  049%=      5-min Rain = 0
KVA1 221250Z 18003KT M01/M11 A2989 RMK A01 T10121106  RH  049%=      5-min Rain = 0
KVA1 221251Z 19003KT M01/M11 A2989 RMK A01 T10121106  RH  049%=      5-min Rain = 0
KVA1 221252Z 19003KT M01/M11 A2989 RMK A01 T10111107  RH  048%=      5-min Rain = 0
KVA1 221253Z 20003KT M01/M11 A2989 RMK A01 T10101108  RH  048%=      5-min Rain = 0
KVA1 221254Z 21003KT M01/M11 A2989 RMK A01 T10081109  RH  046%=      5-min Rain = 0
KVA1 221255Z 21003KT M01/M11 A2989 RMK A01 T10071111  RH  045%=      5-min Rain = 0
KVA1 221256Z 21003KT M01/M11 A2989 RMK A01 T10071114  RH  044%=      5-min Rain = 0
KVA1 221257Z 22003KT M01/M12 A2989 RMK A01 T10071115  RH  044%=      5-min Rain = 0
KVA1 221258Z 24003KT M01/M12 A2989 RMK A01 T10061116  RH  043%=      5-min Rain = 0
KVA1 221259Z 26002KT M01/M12 A2989 RMK A01 T10091117  RH  044%=      5-min Rain = 0
KVA1 221300Z 27002KT M01/M12 A2989 RMK A01 T10141117  RH  045%=      5-min Rain = 0
KVA1 221301Z 27002KT M02/M12 A2989 RMK A01 T10171116  RH  046%=      5-min Rain = 0
KVA1 221302Z 26002KT M02/M12 A2989 RMK A01 T10171115  RH  047%=      5-min Rain = 0
KVA1 221303Z 25002KT M01/M11 A2989 RMK A01 T10121113  RH  046%=      5-min Rain = 0
KVA1 221304Z 24002KT M01/M11 A2989 RMK A01 T10051113  RH  044%=      5-min Rain = 0
KVA1 221305Z 25002KT 00/M11 A2989 RMK A01 T00011112  RH  042%=      5-min Rain = 0
KVA1 221306Z 26003KT 01/M11 A2989 RMK A01 T00051114  RH  041%=      5-min Rain = 0
KVA1 221307Z 25003KT 00/M12 A2989 RMK A01 T00041115  RH  040%=      5-min Rain = 0
KVA1 221308Z 26003KT 00/M12 A2989 RMK A01 T00041117  RH  040%=      5-min Rain = 0
KVA1 221309Z 26003KT 01/M12 A2989 RMK A01 T00051116  RH  040%=      5-min Rain = 0
KVA1 221310Z 27004KT 01/M12 A2989 RMK A01 T00071116  RH  039%=      5-min Rain = 0
KVA1 221311Z 26004KT 01/M12 A2989 RMK A01 T00091117  RH  039%=      5-min Rain = 0
KVA1 221312Z 26004KT 01/M12 A2989 RMK A01 T00091118  RH  038%=      5-min Rain = 0
KVA1 221313Z 26003KT 01/M12 A2989 RMK A01 T00081119  RH  038%=      5-min Rain = 0
KVA1 221314Z 26003KT 01/M12 A2989 RMK A01 T00081119  RH  038%=      5-min Rain = 0
KVA1 221315Z 25004KT 01/M12 A2989 RMK A01 T00081118  RH  038%=      5-min Rain = 0
KVA1 221316Z 25004KT 01/M12 A2989 RMK A01 T00061120  RH  038%=      5-min Rain = 0
KVA1 221317Z 24004KT 00/M12 A2989 RMK A01 T00031121  RH  039%=      5-min Rain = 0
KVA1 221318Z 24004KT 00/M12 A2989 RMK A01 T00021122  RH  039%=      5-min Rain = 0
KVA1 221319Z 24004KT 00/M12 A2989 RMK A01 T00011122  RH  039%=      5-min Rain = 0
KVA1 221320Z 24004KT 00/M12 A2989 RMK A01 T00011122  RH  039%=      5-min Rain = 0
KVA1 221321Z 24005KT 00/M12 A2989 RMK A01 T00021121  RH  039%=      5-min Rain = 0
KVA1 221322Z 24005KT 00/M12 A2989 RMK A01 T00031121  RH  039%=      5-min Rain = 0
KVA1 221323Z 23005KT 00/M12 A2989 RMK A01 T00021122  RH  039%=      5-min Rain = 0
KVA1 221324Z 23005KT 00/12 A2989 RMK A01 T00000-123  RH  039%=      5-min Rain = 0
KVA1 221325Z 23005KT M00/M12 A2989 RMK A01 T10011123  RH  039%=      5-min Rain = 0
KVA1 221326Z 23006KT M00/M12 A2989 RMK A01 T10021123  RH  040%=      5-min Rain = 0
KVA1 221327Z 23006KT M00/M12 A2989 RMK A01 T10021122  RH  040%=      5-min Rain = 0
KVA1 221328Z 23006KT M00/M12 A2989 RMK A01 T10031123  RH  040%=      5-min Rain = 0
KVA1 221329Z 23007KT M00/M12 A299 RMK A01 T10041123  RH  040%=      5-min Rain = 0
KVA1 221330Z 22006KT M01/M12 A299 RMK A01 T10061123  RH  041%=      5-min Rain = 0
KVA1 221331Z 22007KT M01/M12 A299 RMK A01 T10081123  RH  041%=      5-min Rain = 0
KVA1 221332Z 22007KT M01/M12 A299 RMK A01 T10081122  RH  042%=      5-min Rain = 0
KVA1 221333Z 23006KT M01/M12 A299 RMK A01 T10071122  RH  042%=      5-min Rain = 0
KVA1 221334Z 22006KT M01/M12 A299 RMK A01 T10081122  RH  042%=      5-min Rain = 0
KVA1 221335Z 23006KT M01/M12 A299 RMK A01 T10081122  RH  042%=      5-min Rain = 0
KVA1 221336Z 22006KT M01/M12 A299 RMK A01 T10081122  RH  042%=      5-min Rain = 0
KVA1 221337Z 23006KT M01/M12 A299 RMK A01 T10081122  RH  042%=      5-min Rain = 0
KVA1 221338Z 23007KT M01/M12 A299 RMK A01 T10071122  RH  042%=      5-min Rain = 0
KVA1 221339Z 22007KT M01/M12 A299 RMK A01 T10061121  RH  041%=      5-min Rain = 0
KVA1 221340Z 22007KT M00/M12 A299 RMK A01 T10031120  RH  041%=      5-min Rain = 0
KVA1 221341Z 22007KT 00/12 A299 RMK A01 T00-00-120  RH  040%=      5-min Rain = 0
KVA1 221342Z 22007KT 00/M12 A299 RMK A01 T00021120  RH  040%=      5-min Rain = 0
KVA1 221343Z 22008KT 00/M12 A299 RMK A01 T00031121  RH  039%=      5-min Rain = 0
KVA1 221344Z 22008KT 01/M12 A299 RMK A01 T00051121  RH  038%=      5-min Rain = 0
KVA1 221345Z 22008KT 01/M12 A299 RMK A01 T00071122  RH  038%=      5-min Rain = 0
KVA1 221346Z 23007KT 01/M12 A299 RMK A01 T00071123  RH  037%=      5-min Rain = 0
KVA1 221347Z 23007KT 01/M12 A299 RMK A01 T00071123  RH  037%=      5-min Rain = 0
KVA1 221348Z 24007KT 01/M12 A299 RMK A01 T00071123  RH  037%=      5-min Rain = 0
KVA1 221349Z 24007KT 01/M12 A299 RMK A01 T00081122  RH  037%=      5-min Rain = 0
KVA1 221350Z 24006KT 01/M12 A299 RMK A01 T00091122  RH  037%=      5-min Rain = 0
KVA1 221351Z 24005KT 01/M12 A299 RMK A01 T00091122  RH  037%=      5-min Rain = 0
KVA1 221352Z 23005KT 01/M12 A299 RMK A01 T00091122  RH  037%=      5-min Rain = 0
KVA1 221353Z 23005KT 01/M12 A299 RMK A01 T00101121  RH  037%=      5-min Rain = 0
KVA1 221354Z 23004KT 01/M12 A299 RMK A01 T00111120  RH  037%=      5-min Rain = 0
KVA1 221355Z 23005KT 01/M12 A299 RMK A01 T00111120  RH  037%=      5-min Rain = 0
KVA1 221356Z 23005KT 01/M12 A299 RMK A01 T00121119  RH  037%=      5-min Rain = 0
KVA1 221357Z 22005KT 01/M12 A299 RMK A01 T00121118  RH  037%=      5-min Rain = 0
KVA1 221358Z 22005KT 01/M12 A299 RMK A01 T00131116  RH  038%=      5-min Rain = 0
KVA1 221359Z 22005KT 02/M11 A299 RMK A01 T00151113  RH  038%=      5-min Rain = 0
KVA1 221400Z 22005KT 02/M11 A2991 RMK A01 T00161109  RH  039%=      5-min Rain = 0
KVA1 221401Z 22005KT 02/M11 A2991 RMK A01 T00181107  RH  039%=      5-min Rain = 0
KVA1 221402Z 22004KT 02/M11 A2991 RMK A01 T00191106  RH  039%=      5-min Rain = 0
KVA1 221403Z 21004KT 02/M10 A2991 RMK A01 T00201104  RH  039%=      5-min Rain = 0
KVA1 221404Z 22004KT 02/M10 A2991 RMK A01 T00211101  RH  040%=      5-min Rain = 0
KVA1 221405Z 22004KT 02/M10 A2991 RMK A01 T00221100  RH  040%=      5-min Rain = 0
KVA1 221406Z 23004KT 02/M10 A2991 RMK A01 T00231099  RH  040%=      5-min Rain = 0
KVA1 221407Z 24004KT 02/M10 A2991 RMK A01 T00231100  RH  040%=      5-min Rain = 0
KVA1 221408Z 23004KT 02/M10 A2991 RMK A01 T00231099  RH  040%=      5-min Rain = 0
KVA1 221409Z 24004KT 02/M10 A2991 RMK A01 T00231097  RH  041%=      5-min Rain = 0
KVA1 221410Z 24004KT 02/M10 A2991 RMK A01 T00241095  RH  041%=      5-min Rain = 0
KVA1 221411Z 24004KT 02/M09 A2991 RMK A01 T00241094  RH  041%=      5-min Rain = 0
KVA1 221412Z 24004KT 03/M09 A2991 RMK A01 T00251092  RH  042%=      5-min Rain = 0
KVA1 221413Z 24005KT 03/M09 A2991 RMK A01 T00251091  RH  042%=      5-min Rain = 0
KVA1 221414Z 24005KT 03/M09 A2991 RMK A01 T00261090  RH  042%=      5-min Rain = 0
KVA1 221415Z 24004KT 03/M09 A2991 RMK A01 T00261089  RH  042%=      5-min Rain = 0
KVA1 221416Z 24005KT 03/M09 A2991 RMK A01 T00271087  RH  043%=      5-min Rain = 0
KVA1 221417Z 23005KT 03/M09 A2991 RMK A01 T00281085  RH  043%=      5-min Rain = 0
KVA1 221418Z 23004KT 03/M08 A2991 RMK A01 T00281084  RH  044%=      5-min Rain = 0
KVA1 221419Z 23005KT 03/M08 A2991 RMK A01 T00291083  RH  043%=      5-min Rain = 0
KVA1 221420Z 23005KT 03/M08 A2991 RMK A01 T00301082  RH  044%=      5-min Rain = 0
KVA1 221421Z 23004KT 03/M08 A2991 RMK A01 T00311081  RH  044%=      5-min Rain = 0
KVA1 221422Z 23005KT 03/M08 A2991 RMK A01 T00321080  RH  044%=      5-min Rain = 0
KVA1 221423Z 23005KT 03/M08 A2991 RMK A01 T00331079  RH  044%=      5-min Rain = 0
KVA1 221424Z 23005KT 03/M08 A2991 RMK A01 T00341078  RH  044%=      5-min Rain = 0
KVA1 221425Z 23004KT 04/M08 A2991 RMK A01 T00351077  RH  044%=      5-min Rain = 0
KVA1 221426Z 22005KT 04/M08 A2991 RMK A01 T00371076  RH  044%=      5-min Rain = 0
KVA1 221427Z 21004KT 04/M07 A2991 RMK A01 T00391073  RH  044%=      5-min Rain = 0
KVA1 221428Z 21004KT 04/M07 A2991 RMK A01 T00411072  RH  043%=      5-min Rain = 0
KVA1 221429Z 21004KT 04/M07 A2991 RMK A01 T00421072  RH  043%=      5-min Rain = 0
KVA1 221430Z 21004KT 04/M07 A2991 RMK A01 T00441072  RH  043%=      5-min Rain = 0
KVA1 221431Z 21004KT 05/M07 A2991 RMK A01 T00451072  RH  042%=      5-min Rain = 0
KVA1 221432Z 20004KT 05/M07 A2991 RMK A01 T00471072  RH  042%=      5-min Rain = 0
KVA1 221433Z 21004KT 05/M07 A2991 RMK A01 T00471073  RH  041%=      5-min Rain = 0
KVA1 221434Z 20004KT 05/M07 A2991 RMK A01 T00481073  RH  041%=      5-min Rain = 0
KVA1 221435Z 21003KT 05/M07 A2991 RMK A01 T00481073  RH  041%=      5-min Rain = 0
KVA1 221436Z 21003KT 05/M07 A2991 RMK A01 T00491073  RH  041%=      5-min Rain = 0
KVA1 221437Z 21004KT 05/M07 A2991 RMK A01 T00491073  RH  041%=      5-min Rain = 0
KVA1 221438Z 21004KT 05/M07 A2991 RMK A01 T00501073  RH  040%=      5-min Rain = 0
KVA1 221439Z 22004KT 05/M07 A2991 RMK A01 T00511073  RH  040%=      5-min Rain = 0
KVA1 221440Z 21004KT 05/M07 A2991 RMK A01 T00511073  RH  040%=      5-min Rain = 0
KVA1 221441Z 21004KT 05/M07 A2991 RMK A01 T00511073  RH  040%=      5-min Rain = 0
KVA1 221442Z 21004KT 05/M07 A2991 RMK A01 T00511072  RH  040%=      5-min Rain = 0
KVA1 221443Z 22004KT 05/M07 A2991 RMK A01 T00521071  RH  040%=      5-min Rain = 0
KVA1 221444Z 22004KT 05/M07 A2991 RMK A01 T00521073  RH  040%=      5-min Rain = 0
KVA1 221445Z 22004KT 05/M07 A2991 RMK A01 T00531072  RH  040%=      5-min Rain = 0
KVA1 221446Z 22004KT 05/M07 A2991 RMK A01 T00531072  RH  040%=      5-min Rain = 0
KVA1 221447Z 22004KT 05/M07 A2991 RMK A01 T00541071  RH  040%=      5-min Rain = 0
KVA1 221448Z 22005KT 06/M07 A2991 RMK A01 T00551072  RH  040%=      5-min Rain = 0
KVA1 221449Z 21005KT 06/M07 A2991 RMK A01 T00551072  RH  040%=      5-min Rain = 0
KVA1 221450Z 21004KT 06/M07 A2992 RMK A01 T00551072  RH  040%=      5-min Rain = 0
KVA1 221451Z 21005KT 06/M07 A2992 RMK A01 T00551072  RH  039%=      5-min Rain = 0
KVA1 221452Z 21005KT 06/M07 A2992 RMK A01 T00551072  RH  039%=      5-min Rain = 0
KVA1 221453Z 21004KT 06/M07 A2992 RMK A01 T00551072  RH  039%=      5-min Rain = 0
KVA1 221454Z 22005KT 06/M07 A2991 RMK A01 T00551073  RH  039%=      5-min Rain = 0
KVA1 221455Z 23004KT 06/M07 A2992 RMK A01 T00561073  RH  039%=      5-min Rain = 0
KVA1 221456Z 23004KT 06/M07 A2992 RMK A01 T00571072  RH  039%=      5-min Rain = 0
KVA1 221457Z 22005KT 06/M07 A2992 RMK A01 T00581073  RH  038%=      5-min Rain = 0
KVA1 221458Z 21004KT 06/M07 A2992 RMK A01 T00581074  RH  038%=      5-min Rain = 0
KVA1 221459Z 21004KT 06/M08 A2992 RMK A01 T00591075  RH  038%=      5-min Rain = 0
KVA1 221500Z 21005KT 06/M08 A2992 RMK A01 T00591075  RH  037%=      5-min Rain = 0
KVA1 221501Z 21005KT 06/M08 A2992 RMK A01 T00601075  RH  037%=      5-min Rain = 0
KVA1 221502Z 22004KT 06/M08 A2992 RMK A01 T00621075  RH  037%=      5-min Rain = 0
KVA1 221503Z 23003KT 06/M07 A2992 RMK A01 T00641074  RH  036%=      5-min Rain = 0
KVA1 221504Z 23004KT 07/M07 A2992 RMK A01 T00661074  RH  036%=      5-min Rain = 0
KVA1 221505Z 21004KT 07/M08 A2992 RMK A01 T00681075  RH  035%=      5-min Rain = 0
KVA1 221506Z 21004KT 07/M08 A2992 RMK A01 T00681078  RH  034%=      5-min Rain = 0
KVA1 221507Z 21004KT 07/M08 A2992 RMK A01 T00691079  RH  034%=      5-min Rain = 0
KVA1 221508Z 21004KT 07/M08 A2992 RMK A01 T00701079  RH  034%=      5-min Rain = 0
KVA1 221509Z 21004KT 07/M08 A2992 RMK A01 T00711079  RH  033%=      5-min Rain = 0
KVA1 221510Z 20003KT 07/M08 A2992 RMK A01 T00741077  RH  033%=      5-min Rain = 0
KVA1 221511Z 20004KT 08/M08 A2992 RMK A01 T00761078  RH  033%=      5-min Rain = 0
KVA1 221512Z 21003KT 08/M08 A2992 RMK A01 T00771078  RH  033%=      5-min Rain = 0
KVA1 221513Z 21003KT 08/M08 A2992 RMK A01 T00781075  RH  033%=      5-min Rain = 0
KVA1 221514Z 21002KT 08/M08 A2992 RMK A01 T00791075  RH  033%=      5-min Rain = 0
KVA1 221515Z 21003KT 08/M08 A2992 RMK A01 T00801077  RH  032%=      5-min Rain = 0
KVA1 221516Z 21003KT 08/M08 A2992 RMK A01 T00811077  RH  032%=      5-min Rain = 0
KVA1 221517Z 22003KT 08/M08 A2992 RMK A01 T00831076  RH  032%=      5-min Rain = 0
KVA1 221518Z 22004KT 08/M08 A2992 RMK A01 T00841079  RH  031%=      5-min Rain = 0
KVA1 221519Z 21004KT 09/M08 A2992 RMK A01 T00851082  RH  030%=      5-min Rain = 0
KVA1 221520Z 21004KT 09/M08 A2992 RMK A01 T00851082  RH  030%=      5-min Rain = 0
KVA1 221521Z 22003KT 09/M08 A2992 RMK A01 T00861079  RH  030%=      5-min Rain = 0
KVA1 221522Z 20004KT 09/M08 A2992 RMK A01 T00871079  RH  030%=      5-min Rain = 0
KVA1 221523Z 21004KT 09/M08 A2992 RMK A01 T00881084  RH  029%=      5-min Rain = 0
KVA1 221524Z 20004KT 09/M09 A2992 RMK A01 T00901086  RH  028%=      5-min Rain = 0
KVA1 221525Z 21004KT 09/M09 A2992 RMK A01 T00901088  RH  027%=      5-min Rain = 0
KVA1 221526Z 20004KT 09/M09 A2992 RMK A01 T00891088  RH  028%=      5-min Rain = 0
KVA1 221527Z 20003KT 09/M09 A2992 RMK A01 T00891088  RH  028%=      5-min Rain = 0
KVA1 221528Z 21004KT 09/M09 A2992 RMK A01 T00881088  RH  028%=      5-min Rain = 0
KVA1 221529Z 21004KT 09/M09 A2992 RMK A01 T00881087  RH  028%=      5-min Rain = 0
KVA1 221530Z 21004KT 09/M09 A2992 RMK A01 T00881088  RH  028%=      5-min Rain = 0
KVA1 221531Z 19003KT 09/M09 A2992 RMK A01 T00891087  RH  028%=      5-min Rain = 0
KVA1 221532Z 19003KT 09/M09 A2992 RMK A01 T00901087  RH  028%=      5-min Rain = 0
KVA1 221533Z 17004KT 09/M09 A2992 RMK A01 T00921085  RH  028%=      5-min Rain = 0
KVA1 221534Z 17004KT 09/M09 A2992 RMK A01 T00931086  RH  027%=      5-min Rain = 0
KVA1 221535Z 17003KT 09/M09 A2992 RMK A01 T00931086  RH  027%=      5-min Rain = 0
KVA1 221536Z 18003KT 09/M08 A2992 RMK A01 T00931084  RH  028%=      5-min Rain = 0
KVA1 221537Z 18003KT 09/M08 A2992 RMK A01 T00941083  RH  028%=      5-min Rain = 0
KVA1 221538Z 19002KT 10/M08 A2992 RMK A01 T00961083  RH  027%=      5-min Rain = 0
KVA1 221539Z 22003KT 10/M08 A2992 RMK A01 T00951084  RH  027%=      5-min Rain = 0
KVA1 221540Z 21004KT 10/M08 A2992 RMK A01 T00951084  RH  027%=      5-min Rain = 0
KVA1 221541Z 21004KT 09/M09 A2992 RMK A01 T00931086  RH  027%=      5-min Rain = 0
KVA1 221542Z 19004KT 09/M09 A2992 RMK A01 T00921085  RH  028%=      5-min Rain = 0
KVA1 221543Z 17004KT 09/M08 A2992 RMK A01 T00921084  RH  028%=      5-min Rain = 0
KVA1 221544Z 20004KT 09/M08 A2992 RMK A01 T00931084  RH  028%=      5-min Rain = 0
KVA1 221545Z 18003KT 09/M09 A2992 RMK A01 T00931085  RH  028%=      5-min Rain = 0
KVA1 221546Z 20003KT 09/M08 A2992 RMK A01 T00931084  RH  028%=      5-min Rain = 0
KVA1 221547Z 22003KT 09/M08 A2992 RMK A01 T00931084  RH  028%=      5-min Rain = 0
KVA1 221548Z 22003KT 09/M08 A2992 RMK A01 T00941082  RH  028%=      5-min Rain = 0
KVA1 221549Z 21003KT 09/M08 A2992 RMK A01 T00941083  RH  028%=      5-min Rain = 0
KVA1 221550Z 21003KT 10/M08 A2992 RMK A01 T00951081  RH  028%=      5-min Rain = 0
KVA1 221551Z 22004KT 10/M08 A2992 RMK A01 T00951082  RH  028%=      5-min Rain = 0
KVA1 221552Z 23004KT 09/M08 A2992 RMK A01 T00931082  RH  028%=      5-min Rain = 0
KVA1 221553Z 22004KT 09/M08 A2992 RMK A01 T00941082  RH  028%=      5-min Rain = 0
KVA1 221554Z 21003KT 09/M08 A2992 RMK A01 T00941083  RH  028%=      5-min Rain = 0
KVA1 221555Z 19004KT 09/M08 A2992 RMK A01 T00941082  RH  028%=      5-min Rain = 0
KVA1 221556Z 21004KT 09/M08 A2992 RMK A01 T00941082  RH  028%=      5-min Rain = 0
KVA1 221557Z 20003KT 09/M08 A2992 RMK A01 T00941083  RH  028%=      5-min Rain = 0
KVA1 221558Z 19002KT 10/M08 A2992 RMK A01 T00951084  RH  028%=      5-min Rain = 0
KVA1 221559Z 19003KT 10/M08 A2992 RMK A01 T00951082  RH  028%=      5-min Rain = 0
KVA1 221600Z 21004KT 10/M08 A2992 RMK A01 T00981080  RH  028%=      5-min Rain = 0
KVA1 221601Z 21004KT 10/M08 A2992 RMK A01 T01001079  RH  027%=      5-min Rain = 0
KVA1 221602Z 22003KT 10/M08 A2992 RMK A01 T01001080  RH  027%=      5-min Rain = 0
KVA1 221603Z 24003KT 10/M08 A2992 RMK A01 T01011080  RH  027%=      5-min Rain = 0
KVA1 221604Z 21005KT 10/M08 A2992 RMK A01 T01031078  RH  027%=      5-min Rain = 0
KVA1 221605Z 24005KT 11/M08 A2992 RMK A01 T01051080  RH  027%=      5-min Rain = 0
KVA1 221606Z 22005KT 11/M08 A2992 RMK A01 T01051079  RH  027%=      5-min Rain = 0
KVA1 221607Z 22004KT 11/M08 A2992 RMK A01 T01061078  RH  027%=      5-min Rain = 0
KVA1 221608Z 22005KT 11/M08 A2992 RMK A01 T01071078  RH  027%=      5-min Rain = 0
KVA1 221609Z 22005KT 11/M08 A2992 RMK A01 T01091077  RH  026%=      5-min Rain = 0
KVA1 221610Z 21004KT 11/M08 A2992 RMK A01 T01101078  RH  026%=      5-min Rain = 0
KVA1 221611Z 23005KT 11/M08 A2992 RMK A01 T01101076  RH  026%=      5-min Rain = 0
KVA1 221612Z 22005KT 11/M08 A2991 RMK A01 T01111077  RH  026%=      5-min Rain = 0
KVA1 221613Z 22005KT 11/M08 A2991 RMK A01 T01121075  RH  026%=      5-min Rain = 0
KVA1 221614Z 21004KT 11/M08 A2991 RMK A01 T01131078  RH  026%=      5-min Rain = 0
KVA1 221615Z 23004KT 11/M08 A2991 RMK A01 T01121077  RH  026%=      5-min Rain = 0
KVA1 221616Z 20003KT 11/M08 A2991 RMK A01 T01121076  RH  026%=      5-min Rain = 0
KVA1 221617Z 19003KT 12/M08 A2991 RMK A01 T01151075  RH  026%=      5-min Rain = 0
KVA1 221618Z 21003KT 12/M08 A2991 RMK A01 T01161075  RH  026%=      5-min Rain = 0
KVA1 221619Z 22003KT 12/M07 A2991 RMK A01 T01181074  RH  025%=      5-min Rain = 0
KVA1 221620Z 22004KT 12/M07 A2991 RMK A01 T01191074  RH  025%=      5-min Rain = 0
KVA1 221621Z 22005KT 12/M07 A2991 RMK A01 T01191073  RH  025%=      5-min Rain = 0
KVA1 221622Z 21004KT 12/M07 A2991 RMK A01 T01211072  RH  025%=      5-min Rain = 0
KVA1 221623Z 21005KT 12/M07 A2991 RMK A01 T01211074  RH  025%=      5-min Rain = 0
KVA1 221624Z 23005KT 12/M07 A2991 RMK A01 T01201073  RH  025%=      5-min Rain = 0
KVA1 221625Z 20005KT 12/M07 A2991 RMK A01 T01191072  RH  026%=      5-min Rain = 0
KVA1 221626Z 19005KT 12/M07 A2991 RMK A01 T01221069  RH  026%=      5-min Rain = 0
KVA1 221627Z 17008KT 12/M07 A2991 RMK A01 T01241071  RH  025%=      5-min Rain = 0
KVA1 221628Z 16009KT 13/M07 A2991 RMK A01 T01271071  RH  025%=      5-min Rain = 0
KVA1 221629Z 17011KT 13/M07 A2991 RMK A01 T01311069  RH  024%=      5-min Rain = 0
KVA1 221630Z 17012KT 13/M07 A299 RMK A01 T01331070  RH  024%=      5-min Rain = 0
KVA1 221631Z 18011KT 13/M07 A299 RMK A01 T01341069  RH  024%=      5-min Rain = 0
KVA1 221632Z 18011KT 14/M07 A299 RMK A01 T01361068  RH  024%=      5-min Rain = 0
KVA1 221633Z 18010KT 14/M07 A299 RMK A01 T01371069  RH  023%=      5-min Rain = 0
KVA1 221634Z 17008KT 14/M07 A299 RMK A01 T01361069  RH  023%=      5-min Rain = 0
KVA1 221635Z 17008KT 14/M07 A299 RMK A01 T01381066  RH  024%=      5-min Rain = 0
KVA1 221636Z 18011KT 14/M07 A299 RMK A01 T01411066  RH  023%=      5-min Rain = 0
KVA1 221637Z 18009KT 14/M07 A299 RMK A01 T01401068  RH  023%=      5-min Rain = 0
KVA1 221638Z 18010KT 14/M07 A299 RMK A01 T01401065  RH  024%=      5-min Rain = 0
KVA1 221639Z 18011KT 14/M07 A299 RMK A01 T01431065  RH  023%=      5-min Rain = 0
KVA1 221640Z 18009KT 15/M07 A299 RMK A01 T01451065  RH  023%=      5-min Rain = 0
KVA1 221641Z 17012KT 15/M07 A299 RMK A01 T01461066  RH  022%=      5-min Rain = 0
KVA1 221642Z 18009KT 15/M07 A299 RMK A01 T01461067  RH  022%=      5-min Rain = 0
KVA1 221643Z 20010KT 15/M07 A299 RMK A01 T01451065  RH  023%=      5-min Rain = 0
KVA1 221644Z 18012KT 15/M07 A299 RMK A01 T01461068  RH  022%=      5-min Rain = 0
KVA1 221645Z 19009KT 15/M07 A299 RMK A01 T01461072  RH  021%=      5-min Rain = 0
KVA1 221646Z 20009KT 15/M07 A299 RMK A01 T01461070  RH  022%=      5-min Rain = 0
KVA1 221647Z 19008KT 15/M07 A299 RMK A01 T01471067  RH  022%=      5-min Rain = 0
KVA1 221648Z 20009KT 15/M07 A299 RMK A01 T01501066  RH  022%=      5-min Rain = 0
KVA1 221649Z 17012KT 15/M07 A299 RMK A01 T01511065  RH  022%=      5-min Rain = 0
KVA1 221650Z 17011KT 15/M07 A299 RMK A01 T01521065  RH  022%=      5-min Rain = 0
KVA1 221651Z 17007KT 15/M06 A299 RMK A01 T01511064  RH  022%=      5-min Rain = 0
KVA1 221652Z 17008KT 15/M06 A299 RMK A01 T01511064  RH  022%=      5-min Rain = 0
KVA1 221653Z 17012KT 15/M06 A299 RMK A01 T01511064  RH  022%=      5-min Rain = 0
KVA1 221654Z 16008KT 15/M06 A299 RMK A01 T01511063  RH  022%=      5-min Rain = 0
KVA1 221655Z 16009KT 15/M06 A2989 RMK A01 T01501063  RH  022%=      5-min Rain = 0
KVA1 221656Z 16012KT 15/M06 A2989 RMK A01 T01491062  RH  023%=      5-min Rain = 0
KVA1 221657Z 18009KT 15/M06 A2989 RMK A01 T01491061  RH  023%=      5-min Rain = 0
KVA1 221658Z 18011KT 15/M06 A2989 RMK A01 T01521058  RH  023%=      5-min Rain = 0
KVA1 221659Z 19010KT 15/M06 A2989 RMK A01 T01531059  RH  023%=      5-min Rain = 0
KVA1 221700Z 18010G15KT 15/M06 A2989 RMK A01 T01531058  RH  023%=      5-min Rain = 0
KVA1 221701Z 18014KT 15/M06 A2989 RMK A01 T01541057  RH  023%=      5-min Rain = 0
KVA1 221702Z 18013KT 15/M06 A2989 RMK A01 T01531059  RH  023%=      5-min Rain = 0
KVA1 221703Z 19012KT 15/M06 A2989 RMK A01 T01531058  RH  023%=      5-min Rain = 0
KVA1 221704Z 17011KT 15/M06 A2989 RMK A01 T01521058  RH  023%=      5-min Rain = 0
KVA1 221705Z 17014KT 15/M06 A2989 RMK A01 T01541056  RH  023%=      5-min Rain = 0
KVA1 221706Z 18014KT 16/M06 A2989 RMK A01 T01571055  RH  023%=      5-min Rain = 0
KVA1 221707Z 19013KT 16/M06 A2989 RMK A01 T01571056  RH  023%=      5-min Rain = 0
KVA1 221708Z 20013G20KT 16/M06 A2989 RMK A01 T01571056  RH  023%=      5-min Rain = 0
KVA1 221709Z 21017KT 16/M06 A2989 RMK A01 T01571057  RH  022%=      5-min Rain = 0
KVA1 221710Z 19012G17KT 16/M06 A2989 RMK A01 T01571057  RH  022%=      5-min Rain = 0
KVA1 221711Z 19014G20KT 16/M06 A2989 RMK A01 T01571057  RH  022%=      5-min Rain = 0
KVA1 221712Z 20013KT 16/M06 A2989 RMK A01 T01571057  RH  022%=      5-min Rain = 0
KVA1 221713Z 20012KT 16/M06 A2989 RMK A01 T01571058  RH  022%=      5-min Rain = 0
KVA1 221714Z 20013KT 16/M06 A2988 RMK A01 T01561057  RH  023%=      5-min Rain = 0
KVA1 221715Z 21010KT 16/M06 A2988 RMK A01 T01561057  RH  023%=      5-min Rain = 0
KVA1 221716Z 20010G15KT 16/M06 A2988 RMK A01 T01571056  RH  023%=      5-min Rain = 0
KVA1 221717Z 19014KT 16/M06 A2988 RMK A01 T01581056  RH  023%=      5-min Rain = 0
KVA1 221718Z 19013KT 16/M06 A2988 RMK A01 T01571057  RH  022%=      5-min Rain = 0
KVA1 221719Z 18014KT 16/M06 A2988 RMK A01 T01561057  RH  022%=      5-min Rain = 0
KVA1 221720Z 19012KT 16/M06 A2988 RMK A01 T01561058  RH  023%=      5-min Rain = 0
KVA1 221721Z 19013G18KT 16/M06 A2988 RMK A01 T01561057  RH  023%=      5-min Rain = 0
KVA1 221722Z 20013KT 16/M06 A2988 RMK A01 T01571057  RH  022%=      5-min Rain = 0
KVA1 221723Z 19015KT 16/M06 A2988 RMK A01 T01601055  RH  022%=      5-min Rain = 0
KVA1 221724Z 19010G15KT 16/M06 A2988 RMK A01 T01611055  RH  022%=      5-min Rain = 0
KVA1 221725Z 19013G18KT 16/M06 A2988 RMK A01 T01621055  RH  022%=      5-min Rain = 0
KVA1 221726Z 18015G21KT 16/M06 A2988 RMK A01 T01631056  RH  022%=      5-min Rain = 0
KVA1 221727Z 18013G19KT 16/M06 A2988 RMK A01 T01631055  RH  022%=      5-min Rain = 0
KVA1 221728Z 18017KT 17/M06 A2988 RMK A01 T01651056  RH  021%=      5-min Rain = 0
KVA1 221729Z 19014KT 17/M06 A2988 RMK A01 T01651057  RH  021%=      5-min Rain = 0
KVA1 221730Z 20011KT 17/M06 A2988 RMK A01 T01651055  RH  022%=      5-min Rain = 0
KVA1 221731Z 19011G16KT 17/M06 A2988 RMK A01 T01651056  RH  021%=      5-min Rain = 0
KVA1 221732Z 18013G21KT 17/M06 A2988 RMK A01 T01661056  RH  021%=      5-min Rain = 0
KVA1 221733Z 18014G20KT 17/M06 A2988 RMK A01 T01671056  RH  021%=      5-min Rain = 0
KVA1 221734Z 20013KT 17/M06 A2988 RMK A01 T01651056  RH  021%=      5-min Rain = 0
KVA1 221735Z 20015KT 16/M06 A2988 RMK A01 T01641056  RH  022%=      5-min Rain = 0
KVA1 221736Z 20012G17KT 16/M06 A2987 RMK A01 T01641057  RH  022%=      5-min Rain = 0
KVA1 221737Z 21014KT 17/M06 A2987 RMK A01 T01661056  RH  021%=      5-min Rain = 0
KVA1 221738Z 21014KT 17/M06 A2987 RMK A01 T01661058  RH  021%=      5-min Rain = 0
KVA1 221739Z 20016KT 17/M06 A2987 RMK A01 T01671058  RH  021%=      5-min Rain = 0
KVA1 221740Z 20012KT 17/M06 A2987 RMK A01 T01671057  RH  021%=      5-min Rain = 0
KVA1 221741Z 20012KT 17/M06 A2987 RMK A01 T01691056  RH  021%=      5-min Rain = 0
KVA1 221742Z 22010KT 17/M06 A2987 RMK A01 T01671059  RH  021%=      5-min Rain = 0
KVA1 221743Z 20013G19KT 17/M06 A2987 RMK A01 T01671056  RH  021%=      5-min Rain = 0
KVA1 221744Z 18012KT 17/M05 A2987 RMK A01 T01701052  RH  021%=      5-min Rain = 0
KVA1 221745Z 18013KT 17/M05 A2987 RMK A01 T01711052  RH  021%=      5-min Rain = 0
KVA1 221746Z 21015KT 17/M06 A2987 RMK A01 T01701056  RH  021%=      5-min Rain = 0
KVA1 221747Z 21014KT 17/M06 A2987 RMK A01 T01671058  RH  021%=      5-min Rain = 0
KVA1 221748Z 20016KT 17/M06 A2987 RMK A01 T01681058  RH  021%=      5-min Rain = 0
KVA1 221749Z 19016G22KT 17/M06 A2987 RMK A01 T01681058  RH  021%=      5-min Rain = 0
KVA1 221750Z 19011KT 17/M06 A2987 RMK A01 T01661060  RH  021%=      5-min Rain = 0
KVA1 221751Z 18012KT 17/M06 A2987 RMK A01 T01651060  RH  021%=      5-min Rain = 0
KVA1 221752Z 19016KT 17/M06 A2986 RMK A01 T01651059  RH  021%=      5-min Rain = 0
KVA1 221753Z 19014KT 17/M06 A2986 RMK A01 T01661058  RH  021%=      5-min Rain = 0
KVA1 221754Z 19012KT 17/M06 A2986 RMK A01 T01661058  RH  021%=      5-min Rain = 0
KVA1 221755Z 21009KT 17/M06 A2986 RMK A01 T01671056  RH  021%=      5-min Rain = 0
KVA1 221756Z 21012KT 17/M06 A2986 RMK A01 T01711055  RH  021%=      5-min Rain = 0
KVA1 221757Z 19011KT 17/M06 A2986 RMK A01 T01721056  RH  020%=      5-min Rain = 0
KVA1 221758Z 18014KT 17/M05 A2986 RMK A01 T01731053  RH  021%=      5-min Rain = 0
KVA1 221759Z 17014KT 17/M05 A2986 RMK A01 T01721054  RH  021%=      5-min Rain = 0
KVA1 221800Z 17014KT 17/M05 A2986 RMK A01 T01711054  RH  021%=      5-min Rain = 0
KVA1 221801Z 18012KT 17/M05 A2986 RMK A01 T01711053  RH  021%=      5-min Rain = 0
KVA1 221802Z 18012KT 17/M05 A2986 RMK A01 T01711054  RH  021%=      5-min Rain = 0
KVA1 221803Z 18011KT 17/M05 A2986 RMK A01 T01711053  RH  021%=      5-min Rain = 0
KVA1 221804Z 18014KT 17/M05 A2986 RMK A01 T01721054  RH  021%=      5-min Rain = 0
KVA1 221805Z 20013G19KT 17/M06 A2986 RMK A01 T01711056  RH  021%=      5-min Rain = 0
KVA1 221806Z 22015KT 17/M06 A2986 RMK A01 T01711057  RH  021%=      5-min Rain = 0
KVA1 221807Z 20012KT 17/M06 A2986 RMK A01 T01721057  RH  020%=      5-min Rain = 0
KVA1 221808Z 18013KT 17/M05 A2986 RMK A01 T01721054  RH  021%=      5-min Rain = 0
KVA1 221809Z 19013G18KT 17/M05 A2986 RMK A01 T01741052  RH  021%=      5-min Rain = 0
KVA1 221810Z 20015KT 18/M05 A2986 RMK A01 T01761053  RH  020%=      5-min Rain = 0
KVA1 221811Z 20015KT 18/M06 A2986 RMK A01 T01751058  RH  020%=      5-min Rain = 0
KVA1 221812Z 21015KT 17/M06 A2986 RMK A01 T01741059  RH  020%=      5-min Rain = 0
KVA1 221813Z 20014KT 18/M06 A2986 RMK A01 T01751058  RH  020%=      5-min Rain = 0
KVA1 221814Z 20014KT 18/M06 A2986 RMK A01 T01751058  RH  020%=      5-min Rain = 0
KVA1 221815Z 20013KT 17/M06 A2985 RMK A01 T01731058  RH  020%=      5-min Rain = 0
KVA1 221816Z 19015G21KT 17/M06 A2985 RMK A01 T01731058  RH  020%=      5-min Rain = 0
KVA1 221817Z 20012KT 17/M06 A2986 RMK A01 T01731059  RH  020%=      5-min Rain = 0
KVA1 221818Z 19013KT 18/M06 A2985 RMK A01 T01761058  RH  020%=      5-min Rain = 0
KVA1 221819Z 19013KT 18/M06 A2985 RMK A01 T01771060  RH  019%=      5-min Rain = 0
KVA1 221820Z 18014KT 18/M06 A2985 RMK A01 T01771060  RH  019%=      5-min Rain = 0
KVA1 221821Z 18011KT 17/M06 A2985 RMK A01 T01741060  RH  020%=      5-min Rain = 0
KVA1 221822Z 20011G20KT 17/M06 A2985 RMK A01 T01741059  RH  020%=      5-min Rain = 0
KVA1 221823Z 20015G20KT 18/M06 A2985 RMK A01 T01761057  RH  020%=      5-min Rain = 0
KVA1 221824Z 20010G15KT 18/M06 A2985 RMK A01 T01751058  RH  020%=      5-min Rain = 0
KVA1 221825Z 21011KT 17/M06 A2985 RMK A01 T01731058  RH  020%=      5-min Rain = 0
KVA1 221826Z 21016KT 17/M06 A2985 RMK A01 T01741059  RH  020%=      5-min Rain = 0
KVA1 221827Z 21016KT 17/M06 A2985 RMK A01 T01741060  RH  020%=      5-min Rain = 0
KVA1 221828Z 21015KT 17/M06 A2985 RMK A01 T01731059  RH  020%=      5-min Rain = 0
KVA1 221829Z 21014KT 17/M06 A2985 RMK A01 T01731059  RH  020%=      5-min Rain = 0
KVA1 221830Z 18016KT 18/M06 A2985 RMK A01 T01751058  RH  020%=      5-min Rain = 0
KVA1 221831Z 18015KT 18/M06 A2985 RMK A01 T01761059  RH  020%=      5-min Rain = 0
KVA1 221832Z 17012KT 18/M06 A2985 RMK A01 T01751057  RH  020%=      5-min Rain = 0
KVA1 221833Z 19010KT 18/M06 A2985 RMK A01 T01781057  RH  020%=      5-min Rain = 0
KVA1 221834Z 21013G18KT 18/M06 A2985 RMK A01 T01791057  RH  020%=      5-min Rain = 0
KVA1 221835Z 20014G19KT 18/M06 A2985 RMK A01 T01821057  RH  019%=      5-min Rain = 0
KVA1 221836Z 21017KT 18/M06 A2985 RMK A01 T01831057  RH  019%=      5-min Rain = 0
KVA1 221837Z 20015KT 18/M06 A2985 RMK A01 T01791061  RH  019%=      5-min Rain = 0
KVA1 221838Z 20012KT 18/M06 A2985 RMK A01 T01761061  RH  019%=      5-min Rain = 0
KVA1 221839Z 20010KT 18/M06 A2984 RMK A01 T01761060  RH  020%=      5-min Rain = 0
KVA1 221840Z 21014KT 18/M06 A2984 RMK A01 T01771057  RH  020%=      5-min Rain = 0
KVA1 221841Z 21015KT 18/M06 A2984 RMK A01 T01791058  RH  019%=      5-min Rain = 0
KVA1 221842Z 20015KT 18/M06 A2984 RMK A01 T01791058  RH  019%=      5-min Rain = 0
KVA1 221843Z 19013KT 18/M06 A2984 RMK A01 T01791058  RH  019%=      5-min Rain = 0
KVA1 221844Z 20015KT 18/M06 A2984 RMK A01 T01781058  RH  019%=      5-min Rain = 0
KVA1 221845Z 20012KT 18/M06 A2984 RMK A01 T01751058  RH  020%=      5-min Rain = 0
KVA1 221846Z 20017KT 17/M06 A2984 RMK A01 T01741056  RH  020%=      5-min Rain = 0
KVA1 221847Z 20015KT 18/M06 A2984 RMK A01 T01751056  RH  020%=      5-min Rain = 0
KVA1 221848Z 20016KT 18/M06 A2984 RMK A01 T01751057  RH  020%=      5-min Rain = 0
KVA1 221849Z 20017KT 18/M06 A2984 RMK A01 T01761057  RH  020%=      5-min Rain = 0
KVA1 221850Z 20012KT 18/M06 A2984 RMK A01 T01751058  RH  020%=      5-min Rain = 0
KVA1 221851Z 21014G19KT 18/M06 A2984 RMK A01 T01761056  RH  020%=      5-min Rain = 0
KVA1 221852Z 21014KT 18/M06 A2984 RMK A01 T01771055  RH  020%=      5-min Rain = 0
KVA1 221853Z 21010KT 18/M06 A2984 RMK A01 T01771055  RH  020%=      5-min Rain = 0
KVA1 221854Z 20011KT 18/M06 A2984 RMK A01 T01771055  RH  020%=      5-min Rain = 0
KVA1 221855Z 19013KT 18/M05 A2984 RMK A01 T01801054  RH  020%=      5-min Rain = 0
KVA1 221856Z 21011KT 18/M06 A2984 RMK A01 T01791055  RH  020%=      5-min Rain = 0
KVA1 221857Z 19009KT 18/M05 A2984 RMK A01 T01811053  RH  020%=      5-min Rain = 0
KVA1 221858Z 19008KT 18/M05 A2984 RMK A01 T01831054  RH  020%=      5-min Rain = 0
KVA1 221859Z 18013KT 18/M05 A2984 RMK A01 T01841053  RH  020%=      5-min Rain = 0
KVA1 221900Z 18016KT 18/M05 A2984 RMK A01 T01841052  RH  020%=      5-min Rain = 0
KVA1 221901Z 17013KT 18/M05 A2984 RMK A01 T01841052  RH  020%=      5-min Rain = 0
KVA1 221902Z 18013KT 19/M05 A2984 RMK A01 T01861050  RH  020%=      5-min Rain = 0
KVA1 221903Z 17011KT 18/M05 A2983 RMK A01 T01841053  RH  019%=      5-min Rain = 0
KVA1 221904Z 20014KT 18/M05 A2983 RMK A01 T01801054  RH  020%=      5-min Rain = 0
KVA1 221905Z 22015KT 18/M05 A2983 RMK A01 T01801054  RH  020%=      5-min Rain = 0
KVA1 221906Z 22014KT 18/M06 A2983 RMK A01 T01801056  RH  019%=      5-min Rain = 0
KVA1 221907Z 21012KT 18/M06 A2983 RMK A01 T01801057  RH  019%=      5-min Rain = 0
KVA1 221908Z 21014KT 18/M06 A2983 RMK A01 T01801055  RH  020%=      5-min Rain = 0
KVA1 221909Z 20015KT 18/M06 A2983 RMK A01 T01821055  RH  019%=      5-min Rain = 0
KVA1 221910Z 20013KT 19/M05 A2983 RMK A01 T01851051  RH  020%=      5-min Rain = 0
KVA1 221911Z 20014KT 19/M05 A2983 RMK A01 T01851052  RH  020%=      5-min Rain = 0
KVA1 221912Z 18014KT 18/M05 A2983 RMK A01 T01831052  RH  020%=      5-min Rain = 0
KVA1 221913Z 19010G15KT 18/M05 A2983 RMK A01 T01821051  RH  020%=      5-min Rain = 0
KVA1 221914Z 20010G15KT 18/M05 A2982 RMK A01 T01821050  RH  020%=      5-min Rain = 0
KVA1 221915Z 18014G19KT 18/M05 A2982 RMK A01 T01841049  RH  020%=      5-min Rain = 0
KVA1 221916Z 17013KT 19/M05 A2982 RMK A01 T01851050  RH  020%=      5-min Rain = 0
KVA1 221917Z 18011G17KT 18/M05 A2982 RMK A01 T01841050  RH  020%=      5-min Rain = 0
KVA1 221918Z 16013KT 19/M05 A2982 RMK A01 T01851049  RH  020%=      5-min Rain = 0
KVA1 221919Z 17015KT 19/M05 A2982 RMK A01 T01861049  RH  020%=      5-min Rain = 0
KVA1 221920Z 20015KT 19/M05 A2982 RMK A01 T01871051  RH  020%=      5-min Rain = 0
KVA1 221921Z 21015KT 19/M05 A2982 RMK A01 T01871052  RH  019%=      5-min Rain = 0
KVA1 221922Z 21012G19KT 19/M05 A2982 RMK A01 T01861052  RH  019%=      5-min Rain = 0
KVA1 221923Z 20017KT 19/M05 A2982 RMK A01 T01851053  RH  019%=      5-min Rain = 0
KVA1 221924Z 20013KT 18/M05 A2982 RMK A01 T01831053  RH  020%=      5-min Rain = 0
KVA1 221925Z 21012KT 18/M05 A2981 RMK A01 T01841051  RH  020%=      5-min Rain = 0
KVA1 221926Z 20014KT 19/M05 A2981 RMK A01 T01861051  RH  020%=      5-min Rain = 0
KVA1 221927Z 21014KT 18/M05 A2981 RMK A01 T01831053  RH  020%=      5-min Rain = 0
KVA1 221928Z 23012KT 18/M05 A2981 RMK A01 T01811052  RH  020%=      5-min Rain = 0
KVA1 221929Z 24008KT 18/M05 A2981 RMK A01 T01801052  RH  020%=      5-min Rain = 0
KVA1 221930Z 23010KT 18/M05 A2981 RMK A01 T01811051  RH  020%=      5-min Rain = 0
KVA1 221931Z 22008KT 18/M05 A2981 RMK A01 T01811051  RH  020%=      5-min Rain = 0
KVA1 221932Z 17013G18KT 18/M05 A2981 RMK A01 T01821050  RH  020%=      5-min Rain = 0
KVA1 221933Z 19011KT 19/M05 A2981 RMK A01 T01861049  RH  020%=      5-min Rain = 0
KVA1 221934Z 20009KT 19/M05 A2981 RMK A01 T01891050  RH  019%=      5-min Rain = 0
KVA1 221935Z 21012KT 19/M05 A2981 RMK A01 T01891051  RH  019%=      5-min Rain = 0
KVA1 221936Z 19015G24KT 19/M05 A2981 RMK A01 T01891050  RH  019%=      5-min Rain = 0
KVA1 221937Z 19019G24KT 19/M05 A2981 RMK A01 T01891050  RH  019%=      5-min Rain = 0
KVA1 221938Z 20016KT 19/M05 A2981 RMK A01 T01881051  RH  019%=      5-min Rain = 0
KVA1 221939Z 20014KT 19/M05 A2981 RMK A01 T01881050  RH  020%=      5-min Rain = 0
KVA1 221940Z 19015KT 19/M05 A298 RMK A01 T01891049  RH  019%=      5-min Rain = 0
KVA1 221941Z 18021G27KT 19/M05 A298 RMK A01 T01881051  RH  019%=      5-min Rain = 0
KVA1 221942Z 18021G30KT 19/M05 A2979 RMK A01 T01891050  RH  019%=      5-min Rain = 0
KVA1 221943Z 22018KT 19/M05 A298 RMK A01 T01931047  RH  019%=      5-min Rain = 0
KVA1 221944Z 21018G23KT 20/M05 A298 RMK A01 T01961047  RH  019%=      5-min Rain = 0
KVA1 221945Z 20017KT 19/M05 A298 RMK A01 T01941048  RH  019%=      5-min Rain = 0
KVA1 221946Z 19015KT 19/M05 A298 RMK A01 T01931049  RH  019%=      5-min Rain = 0
KVA1 221947Z 20014KT 19/M05 A298 RMK A01 T01911048  RH  019%=      5-min Rain = 0
KVA1 221948Z 19014KT 19/M05 A298 RMK A01 T01891049  RH  019%=      5-min Rain = 0
KVA1 221949Z 19012KT 19/M05 A298 RMK A01 T01871048  RH  020%=      5-min Rain = 0
KVA1 221950Z 18016G21KT 19/M05 A298 RMK A01 T01871047  RH  020%=      5-min Rain = 0
KVA1 221951Z 21013KT 19/M05 A298 RMK A01 T01891047  RH  020%=      5-min Rain = 0
KVA1 221952Z 21012KT 19/M05 A298 RMK A01 T01871048  RH  020%=      5-min Rain = 0
KVA1 221953Z 21011KT 19/M05 A2979 RMK A01 T01851048  RH  020%=      5-min Rain = 0
KVA1 221954Z 22011KT 18/M05 A2979 RMK A01 T01831048  RH  020%=      5-min Rain = 0
KVA1 221955Z 22013G19KT 18/M05 A2979 RMK A01 T01841046  RH  021%=      5-min Rain = 0
KVA1 221956Z 21014KT 19/M05 A2979 RMK A01 T01861046  RH  020%=      5-min Rain = 0
KVA1 221957Z 20011KT 18/M05 A2979 RMK A01 T01841047  RH  020%=      5-min Rain = 0
KVA1 221958Z 20013KT 18/M05 A2979 RMK A01 T01841046  RH  021%=      5-min Rain = 0
KVA1 221959Z 19010KT 19/M04 A2979 RMK A01 T01871044  RH  021%=      5-min Rain = 0
KVA1 222000Z 18011KT 19/M04 A2979 RMK A01 T01901044  RH  020%=      5-min Rain = 0
KVA1 222001Z 21013KT 19/M05 A2979 RMK A01 T01901045  RH  020%=      5-min Rain = 0
KVA1 222002Z 20009KT 19/M04 A2978 RMK A01 T01901044  RH  020%=      5-min Rain = 0
KVA1 222003Z 21014G20KT 19/M04 A2978 RMK A01 T01901043  RH  020%=      5-min Rain = 0
KVA1 222004Z 20018G23KT 19/M04 A2978 RMK A01 T01921044  RH  020%=      5-min Rain = 0
KVA1 222005Z 20018KT 19/M05 A2978 RMK A01 T01921045  RH  020%=      5-min Rain = 0
KVA1 222006Z 20013G18KT 19/M05 A2978 RMK A01 T01911046  RH  020%=      5-min Rain = 0
KVA1 222007Z 20012G18KT 19/M04 A2978 RMK A01 T01911044  RH  020%=      5-min Rain = 0
KVA1 222008Z 21010KT 19/M04 A2978 RMK A01 T01931043  RH  020%=      5-min Rain = 0
KVA1 222009Z 22013KT 19/M04 A2978 RMK A01 T01921044  RH  020%=      5-min Rain = 0
KVA1 222010Z 22014KT 19/M04 A2978 RMK A01 T01911044  RH  020%=      5-min Rain = 0
KVA1 222011Z 21013KT 19/M04 A2978 RMK A01 T01901043  RH  020%=      5-min Rain = 0
KVA1 222012Z 21013KT 19/M04 A2977 RMK A01 T01901043  RH  020%=      5-min Rain = 0
KVA1 222013Z 21013KT 19/M04 A2977 RMK A01 T01901043  RH  020%=      5-min Rain = 0
KVA1 222014Z 20013KT 19/M04 A2977 RMK A01 T01911042  RH  020%=      5-min Rain = 0
KVA1 222015Z 20014KT 19/M04 A2977 RMK A01 T01931042  RH  020%=      5-min Rain = 0
KVA1 222016Z 20014KT 19/M04 A2977 RMK A01 T01941042  RH  020%=      5-min Rain = 0
KVA1 222017Z 22017G25KT 19/M04 A2977 RMK A01 T01931043  RH  020%=      5-min Rain = 0
KVA1 222018Z 21017KT 19/M04 A2977 RMK A01 T01931042  RH  020%=      5-min Rain = 0
KVA1 222019Z 20015G20KT 19/M04 A2977 RMK A01 T01931042  RH  020%=      5-min Rain = 0
KVA1 222020Z 21013KT 20/M04 A2977 RMK A01 T01951042  RH  020%=      5-min Rain = 0
KVA1 222021Z 19012G17KT 19/M04 A2977 RMK A01 T01931042  RH  020%=      5-min Rain = 0
KVA1 222022Z 19011KT 19/M04 A2977 RMK A01 T01931041  RH  020%=      5-min Rain = 0
KVA1 222023Z 21010KT 19/M04 A2977 RMK A01 T01921042  RH  020%=      5-min Rain = 0
KVA1 222024Z 20015KT 19/M04 A2977 RMK A01 T01921041  RH  020%=      5-min Rain = 0
KVA1 222025Z 19013KT 20/M04 A2977 RMK A01 T01951041  RH  020%=      5-min Rain = 0
KVA1 222026Z 20011KT 20/M04 A2977 RMK A01 T01951042  RH  020%=      5-min Rain = 0
KVA1 222027Z 20015G21KT 20/M04 A2977 RMK A01 T01961040  RH  020%=      5-min Rain = 0
KVA1 222028Z 18021KT 20/M04 A2976 RMK A01 T01951042  RH  020%=      5-min Rain = 0
KVA1 222029Z 19021G30KT 20/M04 A2976 RMK A01 T01951043  RH  020%=      5-min Rain = 0
KVA1 222030Z 20019KT 20/M04 A2976 RMK A01 T01971042  RH  020%=      5-min Rain = 0
KVA1 222031Z 19019KT 20/M04 A2976 RMK A01 T01971043  RH  019%=      5-min Rain = 0
KVA1 222032Z 19015KT 19/M04 A2976 RMK A01 T01941043  RH  020%=      5-min Rain = 0
KVA1 222033Z 19015KT 20/M04 A2976 RMK A01 T01961042  RH  020%=      5-min Rain = 0
KVA1 222034Z 21021G28KT 20/M04 A2976 RMK A01 T01981041  RH  020%=      5-min Rain = 0
KVA1 222035Z 21019G24KT 20/M04 A2976 RMK A01 T01981043  RH  019%=      5-min Rain = 0
KVA1 222036Z 21014KT 20/M04 A2976 RMK A01 T01961044  RH  019%=      5-min Rain = 0
KVA1 222037Z 22016KT 20/M04 A2976 RMK A01 T01971042  RH  020%=      5-min Rain = 0
KVA1 222038Z 23013KT 20/M04 A2976 RMK A01 T01971043  RH  019%=      5-min Rain = 0
KVA1 222039Z 22014KT 20/M04 A2976 RMK A01 T01961042  RH  020%=      5-min Rain = 0
KVA1 222040Z 22012KT 20/M04 A2976 RMK A01 T01961041  RH  020%=      5-min Rain = 0
KVA1 222041Z 22010G15KT 20/M04 A2975 RMK A01 T01991039  RH  020%=      5-min Rain = 0
KVA1 222042Z 21011KT 20/M04 A2975 RMK A01 T02031039  RH  019%=      5-min Rain = 0
KVA1 222043Z 22009KT 20/M04 A2975 RMK A01 T02011041  RH  019%=      5-min Rain = 0
KVA1 222044Z 20008KT 20/M04 A2975 RMK A01 T01981041  RH  020%=      5-min Rain = 0
KVA1 222045Z 21009KT 20/M04 A2975 RMK A01 T01991039  RH  020%=      5-min Rain = 0
KVA1 222046Z 23011KT 20/M04 A2975 RMK A01 T02011038  RH  020%=      5-min Rain = 0
KVA1 222047Z 20012KT 20/M04 A2975 RMK A01 T02021039  RH  019%=      5-min Rain = 0
KVA1 222048Z 20012KT 20/M04 A2975 RMK A01 T02011039  RH  020%=      5-min Rain = 0
KVA1 222049Z 21011G16KT 20/M04 A2975 RMK A01 T02011039  RH  020%=      5-min Rain = 0
KVA1 222050Z 21015KT 20/M04 A2975 RMK A01 T02001040  RH  019%=      5-min Rain = 0
KVA1 222051Z 20020G25KT 20/M04 A2975 RMK A01 T02001042  RH  019%=      5-min Rain = 0
KVA1 222052Z 22018KT 20/M04 A2975 RMK A01 T02001043  RH  019%=      5-min Rain = 0
KVA1 222053Z 21017G22KT 20/M04 A2975 RMK A01 T02011043  RH  019%=      5-min Rain = 0
KVA1 222054Z 20014KT 20/M04 A2975 RMK A01 T02011043  RH  019%=      5-min Rain = 0
KVA1 222055Z 20014G19KT 20/M04 A2974 RMK A01 T02021042  RH  019%=      5-min Rain = 0
KVA1 222056Z 20011KT 20/M04 A2974 RMK A01 T02031041  RH  019%=      5-min Rain = 0
KVA1 222057Z 21015KT 20/M04 A2974 RMK A01 T02031040  RH  019%=      5-min Rain = 0
KVA1 222058Z 20018G23KT 21/M04 A2974 RMK A01 T02071038  RH  019%=      5-min Rain = 0
KVA1 222059Z 20017G23KT 21/M04 A2974 RMK A01 T02061040  RH  019%=      5-min Rain = 0
KVA1 222100Z 21018KT 21/M04 A2974 RMK A01 T02051040  RH  019%=      5-min Rain = 0
KVA1 222101Z 21015KT 20/M04 A2974 RMK A01 T02011041  RH  019%=      5-min Rain = 0
KVA1 222102Z 20017KT 20/M04 A2974 RMK A01 T01981040  RH  020%=      5-min Rain = 0
KVA1 222103Z 19012KT 20/M04 A2974 RMK A01 T01981039  RH  020%=      5-min Rain = 0
KVA1 222104Z 19012KT 20/M04 A2974 RMK A01 T02011037  RH  020%=      5-min Rain = 0
KVA1 222105Z 18013KT 20/M04 A2974 RMK A01 T02031037  RH  020%=      5-min Rain = 0
KVA1 222106Z 19013G19KT 20/M04 A2974 RMK A01 T02031036  RH  020%=      5-min Rain = 0
KVA1 222107Z 20011KT 21/M04 A2974 RMK A01 T02051036  RH  019%=      5-min Rain = 0
KVA1 222108Z 19015G20KT 21/M04 A2973 RMK A01 T02061036  RH  019%=      5-min Rain = 0
KVA1 222109Z 18016KT 21/M04 A2973 RMK A01 T02051037  RH  019%=      5-min Rain = 0
KVA1 222110Z 18020KT 20/M04 A2973 RMK A01 T02021037  RH  020%=      5-min Rain = 0
KVA1 222111Z 19016KT 20/M04 A2973 RMK A01 T02011037  RH  020%=      5-min Rain = 0
KVA1 222112Z 20012KT 20/M04 A2973 RMK A01 T02011036  RH  020%=      5-min Rain = 0
KVA1 222113Z 18012KT 20/M04 A2973 RMK A01 T02001036  RH  020%=      5-min Rain = 0
KVA1 222114Z 20011KT 20/M04 A2973 RMK A01 T01991036  RH  020%=      5-min Rain = 0
KVA1 222115Z 18013G18KT 20/M04 A2973 RMK A01 T02011035  RH  020%=      5-min Rain = 0
KVA1 222116Z 19011G16KT 20/M04 A2973 RMK A01 T02001036  RH  020%=      5-min Rain = 0
KVA1 222117Z 19012KT 20/M03 A2972 RMK A01 T02021034  RH  020%=      5-min Rain = 0
KVA1 222118Z 21012KT 21/M03 A2972 RMK A01 T02051034  RH  020%=      5-min Rain = 0
KVA1 222119Z 20015KT 21/M03 A2972 RMK A01 T02071033  RH  020%=      5-min Rain = 0
KVA1 222120Z 19019KT 21/M03 A2972 RMK A01 T02091034  RH  019%=      5-min Rain = 0
KVA1 222121Z 19018KT 21/M04 A2972 RMK A01 T02051036  RH  019%=      5-min Rain = 0
KVA1 222122Z 20016G21KT 20/M04 A2972 RMK A01 T02031036  RH  020%=      5-min Rain = 0
KVA1 222123Z 19016KT 20/M04 A2972 RMK A01 T02031036  RH  020%=      5-min Rain = 0
KVA1 222124Z 20017KT 20/M04 A2972 RMK A01 T02031037  RH  020%=      5-min Rain = 0
KVA1 222125Z 22016KT 20/M04 A2972 RMK A01 T02041036  RH  020%=      5-min Rain = 0
KVA1 222126Z 23018KT 21/M04 A2971 RMK A01 T02051036  RH  019%=      5-min Rain = 0
KVA1 222127Z 22013KT 21/M04 A2971 RMK A01 T02051038  RH  019%=      5-min Rain = 0
KVA1 222128Z 20012KT 21/M04 A2971 RMK A01 T02061037  RH  019%=      5-min Rain = 0
KVA1 222129Z 20014KT 21/M04 A2971 RMK A01 T02091038  RH  019%=      5-min Rain = 0
KVA1 222130Z 19014KT 21/M04 A2971 RMK A01 T02091039  RH  019%=      5-min Rain = 0
KVA1 222131Z 20017KT 21/M04 A2971 RMK A01 T02091039  RH  019%=      5-min Rain = 0
KVA1 222132Z 21014KT 21/M04 A2971 RMK A01 T02081038  RH  019%=      5-min Rain = 0
KVA1 222133Z 21016KT 21/M04 A2971 RMK A01 T02081037  RH  019%=      5-min Rain = 0
KVA1 222134Z 20017KT 21/M04 A2971 RMK A01 T02081038  RH  019%=      5-min Rain = 0
KVA1 222135Z 20016KT 21/M04 A2971 RMK A01 T02071038  RH  019%=      5-min Rain = 0
KVA1 222136Z 19017KT 21/M04 A2971 RMK A01 T02071040  RH  019%=      5-min Rain = 0
KVA1 222137Z 20013KT 21/M04 A2971 RMK A01 T02051042  RH  019%=      5-min Rain = 0
KVA1 222138Z 19016G21KT 20/M04 A297 RMK A01 T02041042  RH  019%=      5-min Rain = 0
KVA1 222139Z 19015KT 20/M04 A297 RMK A01 T02041042  RH  019%=      5-min Rain = 0
KVA1 222140Z 19017G24KT 21/M04 A297 RMK A01 T02071042  RH  018%=      5-min Rain = 0
KVA1 222141Z 19021G26KT 21/M04 A297 RMK A01 T02081042  RH  018%=      5-min Rain = 0
KVA1 222142Z 19018G23KT 21/M04 A297 RMK A01 T02091042  RH  018%=      5-min Rain = 0
KVA1 222143Z 18019G24KT 21/M04 A297 RMK A01 T02091042  RH  018%=      5-min Rain = 0
KVA1 222144Z 19018G23KT 21/M04 A297 RMK A01 T02111041  RH  018%=      5-min Rain = 0
KVA1 222145Z 19016KT 21/M04 A297 RMK A01 T02111041  RH  018%=      5-min Rain = 0
KVA1 222146Z 19016KT 21/M04 A297 RMK A01 T02081040  RH  018%=      5-min Rain = 0
KVA1 222147Z 20016KT 21/M04 A297 RMK A01 T02081039  RH  019%=      5-min Rain = 0
KVA1 222148Z 20017KT 21/M04 A297 RMK A01 T02081039  RH  019%=      5-min Rain = 0
KVA1 222149Z 21015KT 21/M04 A297 RMK A01 T02061039  RH  019%=      5-min Rain = 0
KVA1 222150Z 20012KT 21/M04 A297 RMK A01 T02051039  RH  019%=      5-min Rain = 0
KVA1 222151Z 19012KT 21/M04 A297 RMK A01 T02061038  RH  019%=      5-min Rain = 0
KVA1 222152Z 18010G15KT 21/M04 A297 RMK A01 T02081038  RH  019%=      5-min Rain = 0
KVA1 222153Z 18013KT 21/M04 A297 RMK A01 T02091038  RH  019%=      5-min Rain = 0
KVA1 222154Z 20017KT 21/M04 A297 RMK A01 T02091039  RH  018%=      5-min Rain = 0
KVA1 222155Z 19016G21KT 21/M04 A297 RMK A01 T02101041  RH  018%=      5-min Rain = 0
KVA1 222156Z 19013G18KT 21/M04 A297 RMK A01 T02101042  RH  018%=      5-min Rain = 0
KVA1 222157Z 19014KT 21/M04 A297 RMK A01 T02111041  RH  018%=      5-min Rain = 0
KVA1 222158Z 20014G19KT 21/M04 A297 RMK A01 T02101043  RH  018%=      5-min Rain = 0
KVA1 222159Z 19012KT 21/M05 A297 RMK A01 T02091046  RH  018%=      5-min Rain = 0
KVA1 222200Z 19016G23KT 21/M05 A297 RMK A01 T02121046  RH  017%=      5-min Rain = 0
KVA1 222201Z 19013G18KT 21/M05 A297 RMK A01 T02141049  RH  017%=      5-min Rain = 0
KVA1 222202Z 18016KT 22/M05 A2969 RMK A01 T02151050  RH  016%=      5-min Rain = 0
KVA1 222203Z 19014KT 21/M05 A2969 RMK A01 T02141052  RH  016%=      5-min Rain = 0
KVA1 222204Z 20013KT 21/M05 A2969 RMK A01 T02141050  RH  016%=      5-min Rain = 0
KVA1 222205Z 22010G19KT 22/M05 A2969 RMK A01 T02151048  RH  017%=      5-min Rain = 0
KVA1 222206Z 21013G19KT 22/M05 A2969 RMK A01 T02171048  RH  017%=      5-min Rain = 0
KVA1 222207Z 21013G18KT 21/M05 A2969 RMK A01 T02141049  RH  017%=      5-min Rain = 0
KVA1 222208Z 20016G21KT 21/M05 A2969 RMK A01 T02121048  RH  017%=      5-min Rain = 0
KVA1 222209Z 20017KT 21/M05 A2969 RMK A01 T02101049  RH  017%=      5-min Rain = 0
KVA1 222210Z 20015KT 21/M05 A2969 RMK A01 T02081049  RH  017%=      5-min Rain = 0
KVA1 222211Z 20011KT 21/M05 A2969 RMK A01 T02061049  RH  017%=      5-min Rain = 0
KVA1 222212Z 20012KT 21/M05 A2969 RMK A01 T02061048  RH  018%=      5-min Rain = 0
KVA1 222213Z 19013KT 21/M05 A2969 RMK A01 T02051049  RH  018%=      5-min Rain = 0
KVA1 222214Z 18017KT 20/M05 A2969 RMK A01 T02041049  RH  018%=      5-min Rain = 0
KVA1 222215Z 18015KT 20/M05 A2969 RMK A01 T02021049  RH  018%=      5-min Rain = 0
KVA1 222216Z 18012KT 20/M05 A2969 RMK A01 T02021048  RH  018%=      5-min Rain = 0
KVA1 222217Z 17014KT 20/M05 A2968 RMK A01 T02021048  RH  018%=      5-min Rain = 0
KVA1 222218Z 17011KT 20/M05 A2968 RMK A01 T02031047  RH  018%=      5-min Rain = 0
KVA1 222219Z 19013KT 21/M05 A2968 RMK A01 T02051046  RH  018%=      5-min Rain = 0
KVA1 222220Z 19016KT 21/M04 A2968 RMK A01 T02061044  RH  018%=      5-min Rain = 0
KVA1 222221Z 18014KT 21/M04 A2968 RMK A01 T02061042  RH  018%=      5-min Rain = 0
KVA1 222222Z 18013KT 20/M04 A2968 RMK A01 T02031043  RH  019%=      5-min Rain = 0
KVA1 222223Z 18011KT 20/M04 A2968 RMK A01 T02011042  RH  019%=      5-min Rain = 0
KVA1 222224Z 18011KT 20/M04 A2968 RMK A01 T02011042  RH  019%=      5-min Rain = 0
KVA1 222225Z 18013KT 20/M04 A2968 RMK A01 T02021042  RH  019%=      5-min Rain = 0
KVA1 222226Z 19015KT 20/M04 A2968 RMK A01 T02041042  RH  019%=      5-min Rain = 0
KVA1 222227Z 18017KT 21/M04 A2968 RMK A01 T02051042  RH  019%=      5-min Rain = 0
KVA1 222228Z 18016KT 20/M04 A2968 RMK A01 T02041043  RH  019%=      5-min Rain = 0
KVA1 222229Z 17013KT 20/M04 A2968 RMK A01 T02031043  RH  019%=      5-min Rain = 0
KVA1 222230Z 17010KT 21/M04 A2968 RMK A01 T02051041  RH  019%=      5-min Rain = 0
KVA1 222231Z 16010KT 21/M04 A2968 RMK A01 T02071040  RH  019%=      5-min Rain = 0
KVA1 222232Z 16014KT 21/M04 A2967 RMK A01 T02091040  RH  018%=      5-min Rain = 0
KVA1 222233Z 16019KT 21/M04 A2967 RMK A01 T02101041  RH  018%=      5-min Rain = 0
KVA1 222234Z 15018KT 21/M04 A2967 RMK A01 T02101042  RH  018%=      5-min Rain = 0
KVA1 222235Z 15015KT 21/M04 A2967 RMK A01 T02081043  RH  018%=      5-min Rain = 0
KVA1 222236Z 16013KT 21/M04 A2967 RMK A01 T02061041  RH  019%=      5-min Rain = 0
KVA1 222237Z 16013G18KT 21/M04 A2967 RMK A01 T02061041  RH  019%=      5-min Rain = 0
KVA1 222238Z 16012KT 20/M04 A2967 RMK A01 T02041042  RH  019%=      5-min Rain = 0
KVA1 222239Z 16012G17KT 20/M04 A2967 RMK A01 T02031042  RH  019%=      5-min Rain = 0
KVA1 222240Z 16017KT 20/M04 A2967 RMK A01 T02021043  RH  019%=      5-min Rain = 0
KVA1 222241Z 17017KT 20/M04 A2967 RMK A01 T02011043  RH  019%=      5-min Rain = 0
KVA1 222242Z 17016KT 20/M04 A2967 RMK A01 T02011043  RH  019%=      5-min Rain = 0
KVA1 222243Z 16014KT 20/M04 A2967 RMK A01 T02001044  RH  019%=      5-min Rain = 0
KVA1 222244Z 16018KT 20/M04 A2966 RMK A01 T02001044  RH  019%=      5-min Rain = 0
KVA1 222245Z 15016KT 20/M04 A2966 RMK A01 T01991044  RH  019%=      5-min Rain = 0
KVA1 222246Z 16013KT 20/M04 A2966 RMK A01 T01991044  RH  019%=      5-min Rain = 0
KVA1 222247Z 18013KT 20/M04 A2966 RMK A01 T01991043  RH  019%=      5-min Rain = 0
KVA1 222248Z 17009KT 20/M04 A2966 RMK A01 T01991043  RH  019%=      5-min Rain = 0
KVA1 222249Z 17010KT 20/M04 A2966 RMK A01 T01991043  RH  019%=      5-min Rain = 0
KVA1 222250Z 17013KT 20/M04 A2966 RMK A01 T02001043  RH  019%=      5-min Rain = 0
KVA1 222251Z 18016G21KT 20/M04 A2966 RMK A01 T01991044  RH  019%=      5-min Rain = 0
KVA1 222252Z 19016KT 20/M04 A2965 RMK A01 T01981044  RH  019%=      5-min Rain = 0
KVA1 222253Z 18013KT 20/M04 A2965 RMK A01 T01971044  RH  019%=      5-min Rain = 0
KVA1 222254Z 15014G19KT 20/M04 A2965 RMK A01 T01961044  RH  019%=      5-min Rain = 0
KVA1 222255Z 15014KT 20/M05 A2965 RMK A01 T01971045  RH  019%=      5-min Rain = 0
KVA1 222256Z 15015KT 20/M05 A2965 RMK A01 T01971045  RH  019%=      5-min Rain = 0
KVA1 222257Z 14015KT 20/M05 A2964 RMK A01 T01971045  RH  019%=      5-min Rain = 0
KVA1 222258Z 14015KT 20/M05 A2964 RMK A01 T01971045  RH  019%=      5-min Rain = 0
KVA1 222259Z 15012KT 20/M05 A2964 RMK A01 T01961045  RH  019%=      5-min Rain = 0
KVA1 222300Z 15012KT 20/M05 A2964 RMK A01 T01961045  RH  019%=      5-min Rain = 0
KVA1 222301Z 16012KT 20/M04 A2964 RMK A01 T01971044  RH  019%=      5-min Rain = 0
KVA1 222302Z 16011KT 20/M05 A2964 RMK A01 T01971045  RH  019%=      5-min Rain = 0
KVA1 222303Z 16010KT 20/M04 A2964 RMK A01 T01971044  RH  019%=      5-min Rain = 0
KVA1 222304Z 16013G18KT 20/M05 A2964 RMK A01 T01971045  RH  019%=      5-min Rain = 0
KVA1 222305Z 15014KT 20/M05 A2964 RMK A01 T01971045  RH  019%=      5-min Rain = 0
KVA1 222306Z 17011G16KT 20/M05 A2964 RMK A01 T01971046  RH  019%=      5-min Rain = 0
KVA1 222307Z 17017KT 20/M05 A2965 RMK A01 T01981046  RH  019%=      5-min Rain = 0
KVA1 222308Z 17015KT 20/M05 A2965 RMK A01 T01981047  RH  019%=      5-min Rain = 0
KVA1 222309Z 17014KT 20/M05 A2965 RMK A01 T01981048  RH  019%=      5-min Rain = 0
KVA1 222310Z 17013KT 20/M05 A2964 RMK A01 T01991048  RH  018%=      5-min Rain = 0
KVA1 222311Z 16015KT 20/M05 A2964 RMK A01 T01991048  RH  019%=      5-min Rain = 0
KVA1 222312Z 16015KT 20/M05 A2964 RMK A01 T01991048  RH  019%=      5-min Rain = 0
KVA1 222313Z 17014KT 20/M05 A2964 RMK A01 T01991048  RH  019%=      5-min Rain = 0
KVA1 222314Z 17014KT 20/M05 A2964 RMK A01 T01991047  RH  019%=      5-min Rain = 0
KVA1 222315Z 16015KT 20/M05 A2964 RMK A01 T01991048  RH  018%=      5-min Rain = 0
KVA1 222316Z 17009KT 20/M05 A2964 RMK A01 T01991048  RH  019%=      5-min Rain = 0
KVA1 222317Z 17010G16KT 20/M05 A2964 RMK A01 T01991047  RH  019%=      5-min Rain = 0
KVA1 222318Z 16007KT 20/M05 A2964 RMK A01 T01991047  RH  019%=      5-min Rain = 0
KVA1 222319Z 17008KT 20/M05 A2964 RMK A01 T01991047  RH  019%=      5-min Rain = 0
KVA1 222320Z 17011G16KT 20/M05 A2964 RMK A01 T01991047  RH  019%=      5-min Rain = 0
KVA1 222321Z 17009KT 20/M05 A2964 RMK A01 T01991048  RH  018%=      5-min Rain = 0
KVA1 222322Z 17012KT 20/M05 A2964 RMK A01 T01991048  RH  018%=      5-min Rain = 0
KVA1 222323Z 17014KT 20/M05 A2964 RMK A01 T01991048  RH  018%=      5-min Rain = 0
KVA1 222324Z 17016KT 20/M05 A2963 RMK A01 T01991049  RH  018%=      5-min Rain = 0
KVA1 222325Z 17014KT 20/M05 A2963 RMK A01 T01991049  RH  018%=      5-min Rain = 0
KVA1 222326Z 16015KT 20/M05 A2963 RMK A01 T01991049  RH  018%=      5-min Rain = 0
KVA1 222327Z 16016KT 20/M05 A2963 RMK A01 T01991050  RH  018%=      5-min Rain = 0
KVA1 222328Z 16011G16KT 20/M05 A2963 RMK A01 T01991050  RH  018%=      5-min Rain = 0
KVA1 222329Z 16015KT 20/M05 A2963 RMK A01 T01991050  RH  018%=      5-min Rain = 0
KVA1 222330Z 16011KT 20/M05 A2963 RMK A01 T01991050  RH  018%=      5-min Rain = 0
KVA1 222331Z 17012KT 20/M05 A2963 RMK A01 T01991050  RH  018%=      5-min Rain = 0
KVA1 222332Z 16014KT 20/M05 A2963 RMK A01 T01991050  RH  018%=      5-min Rain = 0
KVA1 222333Z 16009KT 20/M05 A2963 RMK A01 T01991050  RH  018%=      5-min Rain = 0
KVA1 222334Z 17012KT 20/M05 A2964 RMK A01 T01991050  RH  018%=      5-min Rain = 0
KVA1 222335Z 17013KT 20/M05 A2964 RMK A01 T01991050  RH  018%=      5-min Rain = 0
KVA1 222336Z 17014G19KT 20/M05 A2963 RMK A01 T01991050  RH  018%=      5-min Rain = 0
KVA1 222337Z 18012KT 20/M05 A2963 RMK A01 T01991051  RH  018%=      5-min Rain = 0
KVA1 222338Z 18011KT 20/M05 A2963 RMK A01 T01991051  RH  018%=      5-min Rain = 0
KVA1 222339Z 17009KT 20/M05 A2963 RMK A01 T01991051  RH  018%=      5-min Rain = 0
KVA1 222340Z 17011KT 20/M05 A2963 RMK A01 T01991051  RH  018%=      5-min Rain = 0
KVA1 222341Z 16012G17KT 20/M05 A2963 RMK A01 T01991051  RH  018%=      5-min Rain = 0
KVA1 222342Z 17014G19KT 20/M05 A2963 RMK A01 T01991051  RH  018%=      5-min Rain = 0
KVA1 222343Z 17015KT 20/M05 A2963 RMK A01 T01991052  RH  018%=      5-min Rain = 0
KVA1 222344Z 17015KT 20/M05 A2963 RMK A01 T02001052  RH  018%=      5-min Rain = 0
KVA1 222345Z 17016KT 20/M05 A2963 RMK A01 T02001052  RH  018%=      5-min Rain = 0
KVA1 222346Z 17016KT 20/M05 A2963 RMK A01 T02001052  RH  018%=      5-min Rain = 0
KVA1 222347Z 17013KT 20/M05 A2963 RMK A01 T02001052  RH  018%=      5-min Rain = 0
KVA1 222348Z 17016KT 20/M05 A2963 RMK A01 T02001052  RH  018%=      5-min Rain = 0
KVA1 222349Z 17016KT 20/M05 A2963 RMK A01 T02001052  RH  018%=      5-min Rain = 0
KVA1 222350Z 18017G22KT 20/M05 A2963 RMK A01 T02001052  RH  018%=      5-min Rain = 0
KVA1 222351Z 17015G22KT 20/M05 A2962 RMK A01 T02001052  RH  018%=      5-min Rain = 0
KVA1 222352Z 18014KT 20/M05 A2962 RMK A01 T02011052  RH  018%=      5-min Rain = 0
KVA1 222353Z 18015KT 20/M05 A2962 RMK A01 T02001052  RH  018%=      5-min Rain = 0
KVA1 222354Z 17013KT 20/M05 A2962 RMK A01 T02001053  RH  018%=      5-min Rain = 0
KVA1 222355Z 18013KT 20/M05 A2962 RMK A01 T02001053  RH  018%=      5-min Rain = 0
KVA1 222356Z 17014KT 20/M05 A2962 RMK A01 T02011052  RH  018%=      5-min Rain = 0
KVA1 222357Z 18015KT 20/M05 A2962 RMK A01 T02011052  RH  018%=      5-min Rain = 0
KVA1 222358Z 17014KT 20/M05 A2962 RMK A01 T02011052  RH  018%=      5-min Rain = 0
KVA1 222359Z 18013G18KT 20/M05 A2962 RMK A01 T02011052  RH  018%=      5-min Rain = 0
KVA1 230000Z 18017KT 20/M05 A2962 RMK A01 T02011052  RH  018%=      5-min Rain = 0
KVA1 230001Z 18016KT 20/M05 A2962 RMK A01 T02011052  RH  018%=      5-min Rain = 0
KVA1 230002Z 18013KT 20/M05 A2962 RMK A01 T02021052  RH  018%=      5-min Rain = 0
KVA1 230003Z 18014KT 20/M05 A2962 RMK A01 T02021052  RH  018%=      5-min Rain = 0
KVA1 230004Z 18017KT 20/M05 A2962 RMK A01 T02021052  RH  018%=      5-min Rain = 0
KVA1 230005Z 18016G21KT 20/M05 A2962 RMK A01 T02021053  RH  017%=      5-min Rain = 0
KVA1 230006Z 17014KT 20/M05 A2962 RMK A01 T02021053  RH  017%=      5-min Rain = 0
KVA1 230007Z 18014KT 20/M05 A2962 RMK A01 T02021053  RH  017%=      5-min Rain = 0
KVA1 230008Z 18018KT 20/M05 A2961 RMK A01 T02021053  RH  017%=      5-min Rain = 0
KVA1 230009Z 18018KT 20/M05 A2962 RMK A01 T02031053  RH  017%=      5-min Rain = 0
KVA1 230010Z 18016KT 20/M05 A2961 RMK A01 T02021054  RH  017%=      5-min Rain = 0
KVA1 230011Z 18014G19KT 20/M05 A2961 RMK A01 T02031054  RH  017%=      5-min Rain = 0
KVA1 230012Z 18016G21KT 20/M05 A2961 RMK A01 T02031054  RH  017%=      5-min Rain = 0
KVA1 230013Z 18014G19KT 20/M05 A2961 RMK A01 T02031054  RH  017%=      5-min Rain = 0
KVA1 230014Z 18016KT 20/M05 A2961 RMK A01 T02031054  RH  017%=      5-min Rain = 0
KVA1 230015Z 18016KT 20/M05 A2961 RMK A01 T02031054  RH  017%=      5-min Rain = 0
KVA1 230016Z 18017KT 20/M05 A2961 RMK A01 T02031054  RH  017%=      5-min Rain = 0
KVA1 230017Z 18017KT 20/M06 A2961 RMK A01 T02031055  RH  017%=      5-min Rain = 0
KVA1 230018Z 19017KT 20/M06 A2961 RMK A01 T02041055  RH  017%=      5-min Rain = 0
KVA1 230019Z 20014G19KT 20/M06 A2962 RMK A01 T02041055  RH  017%=      5-min Rain = 0
KVA1 230020Z 19016KT 20/M06 A2961 RMK A01 T02041055  RH  017%=      5-min Rain = 0
KVA1 230021Z 19017KT 20/M06 A2962 RMK A01 T02041055  RH  017%=      5-min Rain = 0
KVA1 230022Z 19013KT 21/M06 A2962 RMK A01 T02051055  RH  017%=      5-min Rain = 0
KVA1 230023Z 19014KT 21/M06 A2962 RMK A01 T02051055  RH  017%=      5-min Rain = 0
KVA1 230024Z 19013KT 21/M06 A2961 RMK A01 T02051055  RH  017%=      5-min Rain = 0
KVA1 230025Z 19013KT 21/M06 A2962 RMK A01 T02051056  RH  017%=      5-min Rain = 0
KVA1 230026Z 20012G18KT 21/M06 A2962 RMK A01 T02051055  RH  017%=      5-min Rain = 0
KVA1 230027Z 20012KT 20/M06 A2962 RMK A01 T02041055  RH  017%=      5-min Rain = 0
KVA1 230028Z 20012KT 20/M06 A2962 RMK A01 T02041056  RH  017%=      5-min Rain = 0
KVA1 230029Z 19013KT 20/M06 A2962 RMK A01 T02041056  RH  017%=      5-min Rain = 0
KVA1 230030Z 19014G20KT 20/M06 A2962 RMK A01 T02041057  RH  017%=      5-min Rain = 0
KVA1 230031Z 19015KT 20/M06 A2962 RMK A01 T02041058  RH  017%=      5-min Rain = 0
KVA1 230032Z 20013KT 21/M06 A2962 RMK A01 T02051058  RH  016%=      5-min Rain = 0
KVA1 230033Z 20014KT 21/M06 A2962 RMK A01 T02051058  RH  016%=      5-min Rain = 0
KVA1 230034Z 21014KT 21/M06 A2962 RMK A01 T02051059  RH  016%=      5-min Rain = 0
KVA1 230035Z 21012KT 21/M06 A2962 RMK A01 T02051059  RH  016%=      5-min Rain = 0
KVA1 230036Z 22012KT 21/M06 A2962 RMK A01 T02051059  RH  016%=      5-min Rain = 0
KVA1 230037Z 22010KT 20/M06 A2962 RMK A01 T02041058  RH  017%=      5-min Rain = 0
KVA1 230038Z 21013KT 20/M06 A2962 RMK A01 T02041060  RH  016%=      5-min Rain = 0
KVA1 230039Z 21011G16KT 20/M07 A2962 RMK A01 T02031067  RH  016%=      5-min Rain = 0
KVA1 230040Z 22017KT 20/M08 A2962 RMK A01 T02041080  RH  014%=      5-min Rain = 0
KVA1 230041Z 22013G18KT 21/M10 A2962 RMK A01 T02061096  RH  012%=      5-min Rain = 0
KVA1 230042Z 22015KT 21/M10 A2962 RMK A01 T02071101  RH  012%=      5-min Rain = 0
KVA1 230043Z 22013G19KT 21/M10 A2962 RMK A01 T02091103  RH  011%=      5-min Rain = 0
KVA1 230044Z 22023G29KT 21/M11 A2962 RMK A01 T02091105  RH  011%=      5-min Rain = 0
KVA1 230045Z 23019KT 21/M11 A2962 RMK A01 T02101107  RH  011%=      5-min Rain = 0
KVA1 230046Z 22022G27KT 21/M11 A2962 RMK A01 T02111107  RH  011%=      5-min Rain = 0
KVA1 230047Z 23022G28KT 21/M11 A2962 RMK A01 T02111108  RH  011%=      5-min Rain = 0
KVA1 230048Z 22025G32KT 21/M11 A2962 RMK A01 T02121109  RH  011%=      5-min Rain = 0
KVA1 230049Z 22017G24KT 21/M11 A2962 RMK A01 T02121109  RH  011%=      5-min Rain = 0
KVA1 230050Z 22019G25KT 21/M11 A2962 RMK A01 T02121109  RH  011%=      5-min Rain = 0
KVA1 230051Z 22018G25KT 21/M11 A2962 RMK A01 T02111109  RH  011%=      5-min Rain = 0
KVA1 230052Z 22020G29KT 21/M11 A2962 RMK A01 T02111109  RH  011%=      5-min Rain = 0
KVA1 230053Z 22023G28KT 21/M11 A2962 RMK A01 T02101109  RH  011%=      5-min Rain = 0
KVA1 230054Z 22025KT 21/M11 A2962 RMK A01 T02101110  RH  011%=      5-min Rain = 0
KVA1 230055Z 22022G27KT 21/M11 A2962 RMK A01 T02101110  RH  011%=      5-min Rain = 0
KVA1 230056Z 22020G26KT 21/M11 A2962 RMK A01 T02101110  RH  011%=      5-min Rain = 0
KVA1 230057Z 22022G31KT 21/M11 A2962 RMK A01 T02101110  RH  011%=      5-min Rain = 0
KVA1 230058Z 22021G26KT 21/M11 A2962 RMK A01 T02101111  RH  011%=      5-min Rain = 0
KVA1 230059Z 22025G30KT 21/M11 A2962 RMK A01 T02101113  RH  010%=      5-min Rain = 0
KVA1 230100Z 22027G33KT 21/M12 A2962 RMK A01 T02101116  RH  010%=      5-min Rain = 0
KVA1 230101Z 22024G33KT 21/M12 A2962 RMK A01 T02101118  RH  010%=      5-min Rain = 0
KVA1 230102Z 22028G36KT 21/M12 A2962 RMK A01 T02101120  RH  010%=      5-min Rain = 0
KVA1 230103Z 23025G33KT 21/M12 A2962 RMK A01 T02111122  RH  010%=      5-min Rain = 0
KVA1 230104Z 22026G32KT 21/M12 A2962 RMK A01 T02101122  RH  010%=      5-min Rain = 0
KVA1 230105Z 23021G27KT 21/M12 A2963 RMK A01 T02101122  RH  010%=      5-min Rain = 0
KVA1 230106Z 23024G29KT 21/M12 A2962 RMK A01 T02101121  RH  010%=      5-min Rain = 0
KVA1 230107Z 22021G29KT 21/M12 A2962 RMK A01 T02091119  RH  010%=      5-min Rain = 0
KVA1 230108Z 22024KT 21/M12 A2962 RMK A01 T02091117  RH  010%=      5-min Rain = 0
KVA1 230109Z 23021G28KT 21/M12 A2963 RMK A01 T02091116  RH  010%=      5-min Rain = 0
KVA1 230110Z 23018KT 21/M12 A2963 RMK A01 T02091116  RH  010%=      5-min Rain = 0
KVA1 230111Z 23018KT 21/M12 A2963 RMK A01 T02081116  RH  010%=      5-min Rain = 0
KVA1 230112Z 23017G25KT 21/M12 A2963 RMK A01 T02071116  RH  010%=      5-min Rain = 0
KVA1 230113Z 23021G27KT 21/M12 A2963 RMK A01 T02061116  RH  010%=      5-min Rain = 0
KVA1 230114Z 23019G25KT 21/M12 A2963 RMK A01 T02061117  RH  010%=      5-min Rain = 0
KVA1 230115Z 23018KT 21/M12 A2963 RMK A01 T02061117  RH  010%=      5-min Rain = 0
KVA1 230116Z 23018G25KT 21/M12 A2963 RMK A01 T02061117  RH  010%=      5-min Rain = 0
KVA1 230117Z 23018G25KT 21/M12 A2964 RMK A01 T02051117  RH  010%=      5-min Rain = 0
KVA1 230118Z 23016G24KT 21/M12 A2964 RMK A01 T02051117  RH  010%=      5-min Rain = 0
KVA1 230119Z 23024G29KT 20/M12 A2964 RMK A01 T02041116  RH  011%=      5-min Rain = 0
KVA1 230120Z 23022KT 21/M11 A2964 RMK A01 T02051114  RH  011%=      5-min Rain = 0
KVA1 230121Z 23021G28KT 21/M12 A2964 RMK A01 T02051115  RH  011%=      5-min Rain = 0
KVA1 230122Z 23018G26KT 21/M12 A2964 RMK A01 T02051115  RH  011%=      5-min Rain = 0
KVA1 230123Z 23016G21KT 20/M12 A2964 RMK A01 T02041116  RH  011%=      5-min Rain = 0
KVA1 230124Z 23020G25KT 20/M12 A2964 RMK A01 T02031116  RH  011%=      5-min Rain = 0
KVA1 230125Z 23019G24KT 20/M12 A2964 RMK A01 T02031116  RH  011%=      5-min Rain = 0
KVA1 230126Z 23018G24KT 20/M12 A2964 RMK A01 T02031116  RH  011%=      5-min Rain = 0
KVA1 230127Z 23019G26KT 20/M12 A2964 RMK A01 T02031116  RH  011%=      5-min Rain = 0
KVA1 230128Z 23020G26KT 20/M12 A2965 RMK A01 T02031117  RH  011%=      5-min Rain = 0
KVA1 230129Z 23021G27KT 20/M12 A2965 RMK A01 T02031116  RH  011%=      5-min Rain = 0
KVA1 230130Z 23020G28KT 20/M12 A2965 RMK A01 T02031116  RH  011%=      5-min Rain = 0
KVA1 230131Z 23018G26KT 20/M12 A2965 RMK A01 T02021116  RH  011%=      5-min Rain = 0
KVA1 230132Z 22017G23KT 20/M12 A2965 RMK A01 T02021116  RH  011%=      5-min Rain = 0
KVA1 230133Z 22017KT 20/M12 A2965 RMK A01 T02011115  RH  011%=      5-min Rain = 0
KVA1 230134Z 23018G25KT 20/M12 A2965 RMK A01 T02011115  RH  011%=      5-min Rain = 0
KVA1 230135Z 23017G23KT 20/M12 A2965 RMK A01 T02001115  RH  011%=      5-min Rain = 0
KVA1 230136Z 23018KT 20/M11 A2965 RMK A01 T02001114  RH  011%=      5-min Rain = 0
KVA1 230137Z 23017G24KT 20/M11 A2965 RMK A01 T02001113  RH  011%=      5-min Rain = 0
KVA1 230138Z 22020G26KT 20/M11 A2965 RMK A01 T02001113  RH  011%=      5-min Rain = 0
KVA1 230139Z 23021G26KT 20/M11 A2965 RMK A01 T02011113  RH  011%=      5-min Rain = 0
KVA1 230140Z 23019KT 20/M11 A2965 RMK A01 T02001113  RH  011%=      5-min Rain = 0
KVA1 230141Z 23018G24KT 20/M11 A2965 RMK A01 T02001113  RH  011%=      5-min Rain = 0
KVA1 230142Z 23017G22KT 20/M11 A2965 RMK A01 T02001114  RH  011%=      5-min Rain = 0
KVA1 230143Z 23022G27KT 20/M12 A2965 RMK A01 T01991115  RH  011%=      5-min Rain = 0
KVA1 230144Z 23019G25KT 20/M12 A2965 RMK A01 T01991115  RH  011%=      5-min Rain = 0
KVA1 230145Z 23017G24KT 20/M11 A2966 RMK A01 T02001114  RH  011%=      5-min Rain = 0
KVA1 230146Z 23021KT 20/M12 A2966 RMK A01 T01991115  RH  011%=      5-min Rain = 0
KVA1 230147Z 23019KT 20/M12 A2966 RMK A01 T01991116  RH  011%=      5-min Rain = 0
KVA1 230148Z 23023KT 20/M12 A2966 RMK A01 T01991116  RH  011%=      5-min Rain = 0
KVA1 230149Z 22021G28KT 20/M12 A2966 RMK A01 T01991116  RH  011%=      5-min Rain = 0
KVA1 230150Z 22020G26KT 20/M12 A2966 RMK A01 T01991116  RH  011%=      5-min Rain = 0
KVA1 230151Z 23016G22KT 20/M12 A2966 RMK A01 T01991116  RH  011%=      5-min Rain = 0
KVA1 230152Z 23017KT 20/M12 A2966 RMK A01 T01981116  RH  011%=      5-min Rain = 0
KVA1 230153Z 23013KT 20/M12 A2966 RMK A01 T01971116  RH  011%=      5-min Rain = 0
KVA1 230154Z 23013G21KT 20/M12 A2966 RMK A01 T01961116  RH  011%=      5-min Rain = 0
KVA1 230155Z 23013KT 20/M12 A2966 RMK A01 T01951117  RH  011%=      5-min Rain = 0
KVA1 230156Z 23015G20KT 19/M12 A2966 RMK A01 T01941117  RH  011%=      5-min Rain = 0
KVA1 230157Z 23019G24KT 19/M12 A2966 RMK A01 T01931120  RH  011%=      5-min Rain = 0
KVA1 230158Z 23023G31KT 19/M12 A2966 RMK A01 T01941121  RH  011%=      5-min Rain = 0
KVA1 230159Z 24024G29KT 20/M12 A2966 RMK A01 T01961121  RH  011%=      5-min Rain = 0
KVA1 230200Z 23019G24KT 20/M12 A2967 RMK A01 T01971123  RH  010%=      5-min Rain = 0
KVA1 230201Z 23025G36KT 20/M12 A2967 RMK A01 T01971122  RH  010%=      5-min Rain = 0
KVA1 230202Z 23019G26KT 20/M12 A2967 RMK A01 T01961122  RH  011%=      5-min Rain = 0
KVA1 230203Z 23019G24KT 20/M12 A2967 RMK A01 T01961122  RH  011%=      5-min Rain = 0
KVA1 230204Z 23015KT 20/M12 A2967 RMK A01 T01951122  RH  011%=      5-min Rain = 0
KVA1 230205Z 23018G24KT 20/M12 A2967 RMK A01 T01951122  RH  011%=      5-min Rain = 0
KVA1 230206Z 23016KT 19/M12 A2967 RMK A01 T01941122  RH  011%=      5-min Rain = 0
KVA1 230207Z 23017G23KT 19/M12 A2967 RMK A01 T01931122  RH  011%=      5-min Rain = 0
KVA1 230208Z 23017G24KT 19/M12 A2967 RMK A01 T01931123  RH  011%=      5-min Rain = 0
KVA1 230209Z 24021KT 19/M12 A2967 RMK A01 T01931122  RH  011%=      5-min Rain = 0
KVA1 230210Z 23021G29KT 19/M12 A2967 RMK A01 T01931121  RH  011%=      5-min Rain = 0
KVA1 230211Z 23022G28KT 19/M12 A2967 RMK A01 T01941121  RH  011%=      5-min Rain = 0
KVA1 230212Z 22021G26KT 19/M12 A2967 RMK A01 T01941121  RH  011%=      5-min Rain = 0
KVA1 230213Z 25030G50KT 19/M11 A2966 RMK A01 T01931114  RH  011%=      5-min Rain = 0
KVA1 230214Z 28025G33KT 18/M07 A2969 RMK A01 T01831069  RH  018%=      5-min Rain = 0
KVA1 230215Z 28025G33KT 17/M05 A2969 RMK A01 T01661047  RH  023%=      5-min Rain = 0
KVA1 230216Z 28027G37KT 16/M04 A297 RMK A01 T01551039  RH  026%=      5-min Rain = 0
KVA1 230217Z 28028G35KT 15/M03 A297 RMK A01 T01461033  RH  029%=      5-min Rain = 0
KVA1 230218Z 28024G31KT 14/M03 A297 RMK A01 T01421032  RH  030%=      5-min Rain = 0
KVA1 230219Z 29023G31KT 14/M03 A2971 RMK A01 T01401032  RH  030%=      5-min Rain = 0
KVA1 230220Z 28022G28KT 14/M03 A2971 RMK A01 T01381031  RH  031%=      5-min Rain = 0
KVA1 230221Z 28024G29KT 13/M03 A2972 RMK A01 T01341027  RH  033%=      5-min Rain = 0
KVA1 230222Z 28022G28KT 13/M02 A2972 RMK A01 T01291024  RH  034%=      5-min Rain = 0
KVA1 230223Z 28028G34KT 12/M02 A2972 RMK A01 T01241019  RH  037%=      5-min Rain = 0
KVA1 230224Z 29028G39KT 12/M02 A2972 RMK A01 T01171016  RH  040%=      5-min Rain = 0
KVA1 230225Z 28027G34KT 11/M01 A2972 RMK A01 T01131014  RH  041%=      5-min Rain = 0
KVA1 230226Z 29028G34KT 11/M01 A2973 RMK A01 T01111012  RH  042%=      5-min Rain = 0
KVA1 230227Z 28025G34KT 11/M01 A2973 RMK A01 T01091011  RH  043%=      5-min Rain = 0
KVA1 230228Z 29030G39KT 11/M01 A2974 RMK A01 T01071010  RH  044%=      5-min Rain = 0
KVA1 230229Z 29030G42KT 10/M01 A2974 RMK A01 T01021011  RH  045%=      5-min Rain = 0
KVA1 230230Z 29029G40KT 10/M01 A2974 RMK A01 T00991010  RH  047%=      5-min Rain = 0
KVA1 230231Z 29030G39KT 10/M01 A2975 RMK A01 T00961009  RH  048%=      5-min Rain = 0
KVA1 230232Z 29023G31KT 09/M01 A2975 RMK A01 T00941008  RH  049%=      5-min Rain = 0
KVA1 230233Z 29024KT 09/M01 A2975 RMK A01 T00931008  RH  049%=      5-min Rain = 0
KVA1 230234Z 28025G35KT 09/M01 A2975 RMK A01 T00921008  RH  050%=      5-min Rain = 0
KVA1 230235Z 28028G38KT 09/M01 A2975 RMK A01 T00911008  RH  050%=      5-min Rain = 0
KVA1 230236Z 28030G36KT 09/M01 A2975 RMK A01 T00901008  RH  050%=      5-min Rain = 0
KVA1 230237Z 28032G39KT 09/M01 A2976 RMK A01 T00891008  RH  051%=      5-min Rain = 0
KVA1 230238Z 28030G36KT 09/M01 A2975 RMK A01 T00881008  RH  051%=      5-min Rain = 0
KVA1 230239Z 28029G34KT 09/M01 A2975 RMK A01 T00861008  RH  051%=      5-min Rain = 0
KVA1 230240Z 28029G36KT 09/M01 A2975 RMK A01 T00851008  RH  052%=      5-min Rain = 0
KVA1 230241Z 29028G36KT 09/M01 A2975 RMK A01 T00851007  RH  052%=      5-min Rain = 0
KVA1 230242Z 29025G36KT 08/M01 A2975 RMK A01 T00841007  RH  053%=      5-min Rain = 0
KVA1 230243Z 29023G32KT 08/M01 A2975 RMK A01 T00841008  RH  053%=      5-min Rain = 0
KVA1 230244Z 29030G37KT 08/M01 A2976 RMK A01 T00831008  RH  053%=      5-min Rain = 0
KVA1 230245Z 28026G36KT 08/M01 A2976 RMK A01 T00821008  RH  053%=      5-min Rain = 0
KVA1 230246Z 28025G34KT 08/M01 A2976 RMK A01 T00821008  RH  053%=      5-min Rain = 0
KVA1 230247Z 29023G35KT 08/M01 A2976 RMK A01 T00821008  RH  053%=      5-min Rain = 0
KVA1 230248Z 28023G29KT 08/M01 A2976 RMK A01 T00821008  RH  053%=      5-min Rain = 0
KVA1 230249Z 29027G35KT 08/M01 A2976 RMK A01 T00811008  RH  053%=      5-min Rain = 0
KVA1 230250Z 29023G34KT 08/M01 A2976 RMK A01 T00811009  RH  053%=      5-min Rain = 0
KVA1 230251Z 28028G35KT 08/M01 A2976 RMK A01 T00801009  RH  053%=      5-min Rain = 0
KVA1 230252Z 29023G32KT 08/M01 A2976 RMK A01 T00791009  RH  053%=      5-min Rain = 0
KVA1 230253Z 29023G33KT 08/M01 A2977 RMK A01 T00791009  RH  054%=      5-min Rain = 0
KVA1 230254Z 29025G34KT 08/M01 A2977 RMK A01 T00781009  RH  054%=      5-min Rain = 0
KVA1 230255Z 29029G36KT 08/M01 A2977 RMK A01 T00771010  RH  054%=      5-min Rain = 0
KVA1 230256Z 29031G37KT 08/M01 A2977 RMK A01 T00761011  RH  054%=      5-min Rain = 0
KVA1 230257Z 29030G39KT 07/M01 A2977 RMK A01 T00741012  RH  054%=      5-min Rain = 0
KVA1 230258Z 29030G37KT 07/M01 A2977 RMK A01 T00731013  RH  054%=      5-min Rain = 0
KVA1 230259Z 29028G37KT 07/M01 A2977 RMK A01 T00721013  RH  055%=      5-min Rain = 0
KVA1 230300Z 29025KT 07/M01 A2977 RMK A01 T00711014  RH  055%=      5-min Rain = 0
KVA1 230301Z 28024G38KT 07/M01 A2977 RMK A01 T00711014  RH  055%=      5-min Rain = 0
KVA1 230302Z 28036G43KT 07/M01 A2977 RMK A01 T00711014  RH  055%=      5-min Rain = 0
KVA1 230303Z 28032G46KT 07/M02 A2977 RMK A01 T00711015  RH  055%=      5-min Rain = 0
KVA1 230304Z 29031G39KT 07/M02 A2977 RMK A01 T00701015  RH  054%=      5-min Rain = 0
KVA1 230305Z 28029G36KT 07/M02 A2977 RMK A01 T00701015  RH  054%=      5-min Rain = 0
KVA1 230306Z 28026G32KT 07/M02 A2977 RMK A01 T00701016  RH  054%=      5-min Rain = 0
KVA1 230307Z 28028G38KT 07/M02 A2977 RMK A01 T00701016  RH  054%=      5-min Rain = 0
KVA1 230308Z 28032G40KT 07/M02 A2977 RMK A01 T00701016  RH  054%=      5-min Rain = 0
KVA1 230309Z 29036G43KT 07/M02 A2977 RMK A01 T00701016  RH  054%=      5-min Rain = 0
KVA1 230310Z 28026G39KT 07/M02 A2977 RMK A01 T00701016  RH  054%=      5-min Rain = 0
KVA1 230311Z 28029G34KT 07/M02 A2977 RMK A01 T00701016  RH  054%=      5-min Rain = 0
KVA1 230312Z 28034G41KT 07/M02 A2977 RMK A01 T00701017  RH  054%=      5-min Rain = 0
KVA1 230313Z 28032G41KT 07/M02 A2978 RMK A01 T00701017  RH  054%=      5-min Rain = 0
KVA1 230314Z 28027G38KT 07/M02 A2978 RMK A01 T00701016  RH  054%=      5-min Rain = 0
KVA1 230315Z 29029G45KT 07/M02 A2978 RMK A01 T00701016  RH  054%=      5-min Rain = 0
KVA1 230316Z 29030G38KT 07/M02 A2978 RMK A01 T00701017  RH  054%=      5-min Rain = 0
KVA1 230317Z 27027G34KT 07/M02 A2978 RMK A01 T00701017  RH  054%=      5-min Rain = 0
KVA1 230318Z 28023G29KT 07/M02 A2978 RMK A01 T00701016  RH  054%=      5-min Rain = 0
KVA1 230319Z 28027G38KT 07/M02 A2978 RMK A01 T00701016  RH  054%=      5-min Rain = 0
KVA1 230320Z 28032G38KT 07/M02 A2978 RMK A01 T00691016  RH  054%=      5-min Rain = 0
KVA1 230321Z 28031G44KT 07/M02 A2978 RMK A01 T00691016  RH  055%=      5-min Rain = 0
KVA1 230322Z 28031G40KT 07/M02 A2979 RMK A01 T00691016  RH  055%=      5-min Rain = 0
KVA1 230323Z 28029G38KT 07/M02 A2979 RMK A01 T00691016  RH  055%=      5-min Rain = 0
KVA1 230324Z 28036G41KT 07/M02 A298 RMK A01 T00681016  RH  055%=      5-min Rain = 0
KVA1 230325Z 28031G38KT 07/M02 A298 RMK A01 T00681016  RH  055%=      5-min Rain = 0
KVA1 230326Z 28031G39KT 07/M02 A2981 RMK A01 T00671016  RH  055%=      5-min Rain = 0
KVA1 230327Z 28027G37KT 07/M02 A2981 RMK A01 T00661016  RH  056%=      5-min Rain = 0
KVA1 230328Z 28029G34KT 07/M02 A2981 RMK A01 T00661016  RH  056%=      5-min Rain = 0
KVA1 230329Z 27026G31KT 07/M02 A2981 RMK A01 T00661016  RH  056%=      5-min Rain = 0
KVA1 230330Z 28027G35KT 07/M02 A2982 RMK A01 T00651016  RH  056%=      5-min Rain = 0
KVA1 230331Z 28026G33KT 07/M02 A2982 RMK A01 T00651016  RH  056%=      5-min Rain = 0
KVA1 230332Z 27027G36KT 07/M02 A2982 RMK A01 T00651016  RH  056%=      5-min Rain = 0
KVA1 230333Z 27026G39KT 07/M02 A2982 RMK A01 T00651016  RH  056%=      5-min Rain = 0
KVA1 230334Z 28024G29KT 07/M02 A2982 RMK A01 T00651016  RH  056%=      5-min Rain = 0
KVA1 230335Z 28026G34KT 07/M02 A2982 RMK A01 T00651016  RH  056%=      5-min Rain = 0
KVA1 230336Z 28021G27KT 06/M02 A2982 RMK A01 T00641017  RH  056%=      5-min Rain = 0
KVA1 230337Z 28024G41KT 07/M02 A2982 RMK A01 T00651016  RH  056%=      5-min Rain = 0
KVA1 230338Z 28029G40KT 06/M02 A2983 RMK A01 T00641016  RH  056%=      5-min Rain = 0
KVA1 230339Z 28032G40KT 06/M02 A2983 RMK A01 T00641017  RH  056%=      5-min Rain = 0
KVA1 230340Z 28029G35KT 06/M02 A2983 RMK A01 T00641017  RH  056%=      5-min Rain = 0
KVA1 230341Z 28023G30KT 06/M02 A2983 RMK A01 T00641017  RH  056%=      5-min Rain = 0
KVA1 230342Z 28025G37KT 06/M02 A2983 RMK A01 T00641017  RH  056%=      5-min Rain = 0
KVA1 230343Z 29022KT 06/M02 A2983 RMK A01 T00631017  RH  057%=      5-min Rain = 0
KVA1 230344Z 28023G30KT 06/M02 A2983 RMK A01 T00631016  RH  057%=      5-min Rain = 0
KVA1 230345Z 29028G44KT 06/M02 A2984 RMK A01 T00631017  RH  057%=      5-min Rain = 0
KVA1 230346Z 28028G34KT 06/M02 A2984 RMK A01 T00631016  RH  057%=      5-min Rain = 0
KVA1 230347Z 28026G35KT 06/M02 A2984 RMK A01 T00631017  RH  057%=      5-min Rain = 0
KVA1 230348Z 28023G32KT 06/M02 A2985 RMK A01 T00631016  RH  057%=      5-min Rain = 0
KVA1 230349Z 29021G30KT 06/M02 A2985 RMK A01 T00631017  RH  057%=      5-min Rain = 0
KVA1 230350Z 28028G39KT 06/M02 A2985 RMK A01 T00621018  RH  056%=      5-min Rain = 0
KVA1 230351Z 28031G41KT 06/M02 A2986 RMK A01 T00611019  RH  056%=      5-min Rain = 0
KVA1 230352Z 29029G41KT 06/M02 A2986 RMK A01 T00611020  RH  056%=      5-min Rain = 0
KVA1 230353Z 28025G34KT 06/M02 A2986 RMK A01 T00601021  RH  056%=      5-min Rain = 0
KVA1 230354Z 28027G35KT 06/M02 A2986 RMK A01 T00591021  RH  056%=      5-min Rain = 0
KVA1 230355Z 28022G31KT 06/M02 A2986 RMK A01 T00581021  RH  057%=      5-min Rain = 0
KVA1 230356Z 28027G35KT 06/M02 A2986 RMK A01 T00571021  RH  057%=      5-min Rain = 0
KVA1 230357Z 29029G34KT 06/M02 A2986 RMK A01 T00571021  RH  057%=      5-min Rain = 0
KVA1 230358Z 28025G32KT 06/M02 A2987 RMK A01 T00561021  RH  058%=      5-min Rain = 0
KVA1 230359Z 29027G37KT 06/M02 A2987 RMK A01 T00551021  RH  058%=      5-min Rain = 0
KVA1 230400Z 28024G32KT 06/M02 A2987 RMK A01 T00551021  RH  058%=      5-min Rain = 0
KVA1 230401Z 29025G36KT 05/M02 A2987 RMK A01 T00541021  RH  058%=      5-min Rain = 0
KVA1 230402Z 28022G29KT 05/M02 A2987 RMK A01 T00541021  RH  059%=      5-min Rain = 0
KVA1 230403Z 29025G35KT 05/M02 A2987 RMK A01 T00541021  RH  059%=      5-min Rain = 0
KVA1 230404Z 29017G24KT 05/M02 A2988 RMK A01 T00541021  RH  059%=      5-min Rain = 0
KVA1 230405Z 29016G21KT 05/M02 A2988 RMK A01 T00541021  RH  059%=      5-min Rain = 0
KVA1 230406Z 29014G20KT 05/M02 A2988 RMK A01 T00541021  RH  059%=      5-min Rain = 0
KVA1 230407Z 28018KT 05/M02 A2989 RMK A01 T00541021  RH  059%=      5-min Rain = 0
KVA1 230408Z 28019G25KT 05/M02 A2989 RMK A01 T00541021  RH  058%=      5-min Rain = 0
KVA1 230409Z 27015G27KT 05/M02 A2989 RMK A01 T00531022  RH  058%=      5-min Rain = 0
KVA1 230410Z 28020G26KT 05/M02 A299 RMK A01 T00531022  RH  058%=      5-min Rain = 0
KVA1 230411Z 29015G20KT 05/M02 A299 RMK A01 T00521022  RH  059%=      5-min Rain = 0
KVA1 230412Z 29014G19KT 05/M02 A299 RMK A01 T00521022  RH  059%=      5-min Rain = 0
KVA1 230413Z 30015G20KT 05/M02 A299 RMK A01 T00521022  RH  059%=      5-min Rain = 0
KVA1 230414Z 28010G15KT 05/M02 A2989 RMK A01 T00521022  RH  059%=      5-min Rain = 0
KVA1 230415Z 28011G16KT 05/M02 A2989 RMK A01 T00521022  RH  059%=      5-min Rain = 0
KVA1 230416Z 28015G21KT 05/M02 A299 RMK A01 T00521022  RH  059%=      5-min Rain = 0
KVA1 230417Z 30018KT 05/M02 A299 RMK A01 T00521023  RH  058%=      5-min Rain = 0
KVA1 230418Z 30016G23KT 05/M02 A2989 RMK A01 T00521023  RH  058%=      5-min Rain = 0
KVA1 230419Z 30012G17KT 05/M02 A2989 RMK A01 T00521023  RH  058%=      5-min Rain = 0
KVA1 230420Z 30017G24KT 05/M02 A2989 RMK A01 T00521023  RH  058%=      5-min Rain = 0
KVA1 230421Z 30021G31KT 05/M02 A2989 RMK A01 T00521024  RH  058%=      5-min Rain = 0
KVA1 230422Z 29019G28KT 05/M02 A2989 RMK A01 T00521024  RH  058%=      5-min Rain = 0
KVA1 230423Z 30018G25KT 05/M02 A299 RMK A01 T00511024  RH  058%=      5-min Rain = 0
KVA1 230424Z 30022G30KT 05/M03 A299 RMK A01 T00511025  RH  058%=      5-min Rain = 0
KVA1 230425Z 30022G29KT 05/M03 A2991 RMK A01 T00501025  RH  058%=      5-min Rain = 0
KVA1 230426Z 30021G27KT 05/M03 A2991 RMK A01 T00501025  RH  058%=      5-min Rain = 0
KVA1 230427Z 31018G23KT 05/M03 A2991 RMK A01 T00501025  RH  058%=      5-min Rain = 0
KVA1 230428Z 29014G24KT 05/M03 A2991 RMK A01 T00501025  RH  058%=      5-min Rain = 0
KVA1 230429Z 29013KT 05/M03 A2992 RMK A01 T00491025  RH  059%=      5-min Rain = 0
KVA1 230430Z 28021G27KT 05/M03 A2991 RMK A01 T00491025  RH  059%=      5-min Rain = 0
KVA1 230431Z 28019G25KT 05/M02 A2992 RMK A01 T00491024  RH  059%=      5-min Rain = 0
KVA1 230432Z 29014G25KT 05/M02 A2992 RMK A01 T00481024  RH  059%=      5-min Rain = 0
KVA1 230433Z 28017G22KT 05/M02 A2992 RMK A01 T00481024  RH  059%=      5-min Rain = 0
KVA1 230434Z 28019G24KT 05/M02 A2992 RMK A01 T00481024  RH  060%=      5-min Rain = 0
KVA1 230435Z 28015G21KT 05/M02 A2992 RMK A01 T00481023  RH  060%=      5-min Rain = 0
KVA1 230436Z 28018G24KT 05/M02 A2992 RMK A01 T00471024  RH  060%=      5-min Rain = 0
KVA1 230437Z 29014G19KT 05/M02 A2992 RMK A01 T00471023  RH  060%=      5-min Rain = 0
KVA1 230438Z 28017G22KT 05/M02 A2991 RMK A01 T00471023  RH  060%=      5-min Rain = 0
KVA1 230439Z 29014KT 05/M02 A2991 RMK A01 T00471023  RH  060%=      5-min Rain = 0
KVA1 230440Z 28016G22KT 05/M02 A2991 RMK A01 T00471023  RH  060%=      5-min Rain = 0
KVA1 230441Z 29019G24KT 05/M02 A2991 RMK A01 T00471023  RH  060%=      5-min Rain = 0
KVA1 230442Z 29018G27KT 05/M02 A299 RMK A01 T00471023  RH  061%=      5-min Rain = 0
KVA1 230443Z 30019G26KT 05/M02 A299 RMK A01 T00471023  RH  061%=      5-min Rain = 0
KVA1 230444Z 30021G33KT 05/M02 A2989 RMK A01 T00461023  RH  061%=      5-min Rain = 0
KVA1 230445Z 29027G32KT 05/M02 A2989 RMK A01 T00461023  RH  061%=      5-min Rain = 0
KVA1 230446Z 29023KT 05/M02 A2989 RMK A01 T00451024  RH  061%=      5-min Rain = 0
KVA1 230447Z 29023G31KT 05/M02 A2989 RMK A01 T00461023  RH  061%=      5-min Rain = 0
KVA1 230448Z 29024G30KT 05/M02 A2989 RMK A01 T00451023  RH  061%=      5-min Rain = 0
KVA1 230449Z 28023KT 05/M02 A2989 RMK A01 T00451023  RH  062%=      5-min Rain = 0
KVA1 230450Z 29018G25KT 04/M02 A299 RMK A01 T00441023  RH  062%=      5-min Rain = 0
KVA1 230451Z 29021G29KT 04/M02 A2989 RMK A01 T00441022  RH  062%=      5-min Rain = 0
KVA1 230452Z 28027G39KT 04/M02 A2989 RMK A01 T00431022  RH  062%=      5-min Rain = 0
KVA1 230453Z 28027G37KT 04/M02 A2989 RMK A01 T00421021  RH  063%=      5-min Rain = 0
KVA1 230454Z 28024G32KT 04/M02 A299 RMK A01 T00411020  RH  065%=      5-min Rain = 0
KVA1 230455Z 28025KT 04/M02 A299 RMK A01 T00401018  RH  066%=      5-min Rain = 0
KVA1 230456Z 28027G36KT 04/M02 A299 RMK A01 T00401017  RH  066%=      5-min Rain = 0
KVA1 230457Z 27027G37KT 04/M02 A2991 RMK A01 T00391015  RH  068%=      5-min Rain = 0
KVA1 230458Z 29028G35KT 04/M01 A2991 RMK A01 T00381014  RH  069%=      5-min Rain = 0
KVA1 230459Z 28025G33KT 04/M01 A2991 RMK A01 T00371013  RH  070%=      5-min Rain = 0
KVA1 230500Z 27024G31KT 04/M01 A2991 RMK A01 T00371011  RH  071%=      5-min Rain = 0
KVA1 230501Z 28026G34KT 04/M01 A2991 RMK A01 T00351010  RH  072%=      5-min Rain = 0
KVA1 230502Z 28025G35KT 03/M01 A2991 RMK A01 T00341009  RH  074%=      5-min Rain = 0
KVA1 230503Z 28027G34KT 03/M01 A2991 RMK A01 T00331007  RH  075%=      5-min Rain = 0
KVA1 230504Z 29021G29KT 03/M01 A299 RMK A01 T00321006  RH  076%=      5-min Rain = 0
KVA1 230505Z 28032G42KT 03/M01 A299 RMK A01 T00311005  RH  077%=      5-min Rain = 0
KVA1 230506Z 28021G28KT 03/M01 A299 RMK A01 T00301005  RH  078%=      5-min Rain = 0
KVA1 230507Z 28024G33KT 03/M00 A299 RMK A01 T00291002  RH  080%=      5-min Rain = 0
KVA1 230508Z 29029G37KT 03/M00 A299 RMK A01 T00281002  RH  081%=      5-min Rain = 0
KVA1 230509Z 28026G34KT 03/M00 A299 RMK A01 T00271002  RH  081%=      5-min Rain = 0
KVA1 230510Z 28025G33KT 03/M00 A299 RMK A01 T00271002  RH  082%=      5-min Rain = 0
KVA1 230511Z 28025G32KT 03/M00 A299 RMK A01 T00261002  RH  082%=      5-min Rain = 0
KVA1 230512Z 29028G34KT 03/M00 A299 RMK A01 T00261002  RH  082%=      5-min Rain = 0
KVA1 230513Z 28026G31KT 03/M00 A299 RMK A01 T00261003  RH  082%=      5-min Rain = 0
KVA1 230514Z 27024G34KT 03/M00 A299 RMK A01 T00251002  RH  082%=      5-min Rain = 0
KVA1 230515Z 27028G38KT 03/M00 A299 RMK A01 T00251002  RH  082%=      5-min Rain = 0
KVA1 230516Z 28028G33KT 03/M00 A2991 RMK A01 T00251002  RH  082%=      5-min Rain = 0
KVA1 230517Z 28027G34KT 03/M00 A2991 RMK A01 T00251003  RH  082%=      5-min Rain = 0
KVA1 230518Z 28028G33KT 03/M00 A2991 RMK A01 T00251002  RH  083%=      5-min Rain = 0
KVA1 230519Z 28029G36KT 02/M00 A2991 RMK A01 T00241002  RH  083%=      5-min Rain = 0
KVA1 230520Z 27025G36KT 02/M00 A2991 RMK A01 T00241002  RH  083%=      5-min Rain = 0
KVA1 230521Z 27024G31KT 02/M00 A2991 RMK A01 T00241001  RH  084%=      5-min Rain = 0
KVA1 230522Z 28029G36KT 02/M00 A2991 RMK A01 T00231001  RH  084%=      5-min Rain = 0
KVA1 230523Z 27021G29KT 02/M00 A2991 RMK A01 T00231001  RH  084%=      5-min Rain = 0
KVA1 230524Z 28023G36KT 02/00 A2991 RMK A01 T002200-0  RH  085%=      5-min Rain = 0
KVA1 230525Z 28031G39KT 02/M00 A2991 RMK A01 T00221001  RH  085%=      5-min Rain = 0
KVA1 230526Z 28029G37KT 02/M00 A2991 RMK A01 T00221002  RH  085%=      5-min Rain = 0
KVA1 230527Z 28027G32KT 02/M00 A2992 RMK A01 T00211002  RH  085%=      5-min Rain = 0
KVA1 230528Z 27022G31KT 02/M00 A2992 RMK A01 T00211002  RH  085%=      5-min Rain = 0
KVA1 230529Z 27025G35KT 02/M00 A2992 RMK A01 T00211001  RH  085%=      5-min Rain = 0
KVA1 230530Z 28024KT 02/M00 A2992 RMK A01 T00211001  RH  086%=      5-min Rain = 0
KVA1 230531Z 27021G26KT 02/M00 A2992 RMK A01 T00211001  RH  086%=      5-min Rain = 0
KVA1 230532Z 27024G31KT 02/M00 A2992 RMK A01 T00201001  RH  086%=      5-min Rain = 0
KVA1 230533Z 27029G38KT 02/M00 A2993 RMK A01 T00201001  RH  086%=      5-min Rain = 0
KVA1 230534Z 27027G34KT 02/M00 A2993 RMK A01 T00201002  RH  085%=      5-min Rain = 0
KVA1 230535Z 27026G33KT 02/M00 A2993 RMK A01 T00191003  RH  085%=      5-min Rain = 0
KVA1 230536Z 26024G31KT 02/M00 A2993 RMK A01 T00191002  RH  086%=      5-min Rain = 0
KVA1 230537Z 27022G29KT 02/M00 A2993 RMK A01 T00191002  RH  086%=      5-min Rain = 0
KVA1 230538Z 27027G33KT 02/M00 A2993 RMK A01 T00181002  RH  087%=      5-min Rain = 0
KVA1 230539Z 27021G29KT 02/M00 A2993 RMK A01 T00181002  RH  087%=      5-min Rain = 0
KVA1 230540Z 26020G27KT 02/M00 A2993 RMK A01 T00171002  RH  087%=      5-min Rain = 0
KVA1 230541Z 27018G32KT 02/M00 A2993 RMK A01 T00171001  RH  088%=      5-min Rain = 0
KVA1 230542Z 26021G26KT 02/M00 A2993 RMK A01 T00171001  RH  088%=      5-min Rain = 0
KVA1 230543Z 26017G24KT 02/M00 A2994 RMK A01 T00171002  RH  088%=      5-min Rain = 0
KVA1 230544Z 26019G25KT 02/M00 A2994 RMK A01 T00181001  RH  088%=      5-min Rain = 0
KVA1 230545Z 26020G25KT 02/M00 A2994 RMK A01 T00181002  RH  087%=      5-min Rain = 0
KVA1 230546Z 26019G27KT 02/M00 A2994 RMK A01 T00191002  RH  086%=      5-min Rain = 0
KVA1 230547Z 25018G25KT 02/M00 A2994 RMK A01 T00191003  RH  085%=      5-min Rain = 0
KVA1 230548Z 26020G31KT 02/M00 A2994 RMK A01 T00201003  RH  084%=      5-min Rain = 0
KVA1 230549Z 26019G24KT 02/M00 A2994 RMK A01 T00211004  RH  084%=      5-min Rain = 0
KVA1 230550Z 26016G24KT 02/M00 A2994 RMK A01 T00211004  RH  084%=      5-min Rain = 0
KVA1 230551Z 26017G24KT 02/M00 A2994 RMK A01 T00211004  RH  084%=      5-min Rain = 0
KVA1 230552Z 26019G26KT 02/M01 A2994 RMK A01 T00211005  RH  083%=      5-min Rain = 0
KVA1 230553Z 26016G26KT 02/M01 A2994 RMK A01 T00221006  RH  082%=      5-min Rain = 0
KVA1 230554Z 26019G27KT 02/M01 A2994 RMK A01 T00221005  RH  083%=      5-min Rain = 0
KVA1 230555Z 26016G21KT 02/M01 A2994 RMK A01 T00221005  RH  082%=      5-min Rain = 0
KVA1 230556Z 26013KT 02/M00 A2993 RMK A01 T00221004  RH  083%=      5-min Rain = 0
KVA1 230557Z 26014G19KT 02/M00 A2993 RMK A01 T00221004  RH  083%=      5-min Rain = 0
KVA1 230558Z 25011KT 02/M00 A2993 RMK A01 T00221004  RH  083%=      5-min Rain = 0
KVA1 230559Z 24012KT 02/M00 A2993 RMK A01 T00221002  RH  084%=      5-min Rain = 0

Page generated in 0.2194 seconds.